<?xml version="1.0" encoding="UTF-8" standalone="no" ?>
<gpx xmlns="http://www.topografix.com/GPX/1/1" xmlns:xsi="http://www.w3.org/2001/XMLSchema-instance" xsi:schemaLocation="http://www.topografix.com/GPX/1/1 http://www.topografix.com/GPX/1/1/gpx.xsd" version="1.1" creator="VisuGPX - https://www.visugpx.com">
  <metadata>
    <name>Beaumont-du-Périgord - 19351 - UtagawaVTT.com</name>
    <desc><![CDATA[pppppppppppppppppppppppppppppppppppppppppppppppppppppppppppppppppppppppppppppppppppp]]></desc>
  </metadata>
  <trk>
    <name><![CDATA[Beaumont-du-Périgord - 19351 - UtagawaVTT.com]]></name>
    <trkseg>
      <trkpt lat="44.76914" lon="0.7678">
        <ele>133.671249</ele>
        <time>2010-01-01T00:00:00Z</time>
      </trkpt>
      <trkpt lat="44.76911" lon="0.76771">
        <ele>133.977875</ele>
        <time>2010-01-01T00:00:02Z</time>
      </trkpt>
      <trkpt lat="44.76912" lon="0.76799">
        <ele>133.078171</ele>
        <time>2010-01-01T00:00:10Z</time>
      </trkpt>
      <trkpt lat="44.7689" lon="0.76805">
        <ele>133.109375</ele>
        <time>2010-01-01T00:00:19Z</time>
      </trkpt>
      <trkpt lat="44.76911" lon="0.7683">
        <ele>132.069016</ele>
        <time>2010-01-01T00:00:30Z</time>
      </trkpt>
      <trkpt lat="44.76918" lon="0.76868">
        <ele>129.772125</ele>
        <time>2010-01-01T00:00:41Z</time>
      </trkpt>
      <trkpt lat="44.7694" lon="0.76884">
        <ele>129.195435</ele>
        <time>2010-01-01T00:00:51Z</time>
      </trkpt>
      <trkpt lat="44.76948" lon="0.76879">
        <ele>129.555969</ele>
        <time>2010-01-01T00:00:54Z</time>
      </trkpt>
      <trkpt lat="44.76952" lon="0.76886">
        <ele>129.27684</ele>
        <time>2010-01-01T00:00:57Z</time>
      </trkpt>
      <trkpt lat="44.76922" lon="0.76862">
        <ele>130.197388</ele>
        <time>2010-01-01T00:01:11Z</time>
      </trkpt>
      <trkpt lat="44.7691" lon="0.76832">
        <ele>132.012985</ele>
        <time>2010-01-01T00:01:20Z</time>
      </trkpt>
      <trkpt lat="44.76915" lon="0.76853">
        <ele>130.73288</ele>
        <time>2010-01-01T00:01:27Z</time>
      </trkpt>
      <trkpt lat="44.76913" lon="0.76817">
        <ele>132.477493</ele>
        <time>2010-01-01T00:01:37Z</time>
      </trkpt>
      <trkpt lat="44.76918" lon="0.76799">
        <ele>133.071243</ele>
        <time>2010-01-01T00:01:42Z</time>
      </trkpt>
      <trkpt lat="44.76922" lon="0.76797">
        <ele>133.128754</ele>
        <time>2010-01-01T00:01:44Z</time>
      </trkpt>
      <trkpt lat="44.76929" lon="0.76805">
        <ele>132.847504</ele>
        <time>2010-01-01T00:01:48Z</time>
      </trkpt>
      <trkpt lat="44.76911" lon="0.76802">
        <ele>132.986969</ele>
        <time>2010-01-01T00:01:55Z</time>
      </trkpt>
      <trkpt lat="44.76914" lon="0.76792">
        <ele>133.291245</ele>
        <time>2010-01-01T00:01:58Z</time>
      </trkpt>
      <trkpt lat="44.76908" lon="0.76793">
        <ele>133.323257</ele>
        <time>2010-01-01T00:02:01Z</time>
      </trkpt>
      <trkpt lat="44.76913" lon="0.76792">
        <ele>133.278748</ele>
        <time>2010-01-01T00:02:03Z</time>
      </trkpt>
      <trkpt lat="44.76915" lon="0.76783">
        <ele>133.5625</ele>
        <time>2010-01-01T00:02:05Z</time>
      </trkpt>
      <trkpt lat="44.76913" lon="0.76761">
        <ele>134</ele>
        <time>2010-01-01T00:02:12Z</time>
      </trkpt>
      <trkpt lat="44.76893" lon="0.76747">
        <ele>134.26799</ele>
        <time>2010-01-01T00:02:21Z</time>
      </trkpt>
      <trkpt lat="44.76887" lon="0.76771">
        <ele>134.532471</ele>
        <time>2010-01-01T00:02:28Z</time>
      </trkpt>
      <trkpt lat="44.76858" lon="0.76774">
        <ele>135.28244</ele>
        <time>2010-01-01T00:02:40Z</time>
      </trkpt>
      <trkpt lat="44.76833" lon="0.76769">
        <ele>136.52951</ele>
        <time>2010-01-01T00:02:50Z</time>
      </trkpt>
      <trkpt lat="44.76825" lon="0.76746">
        <ele>136.84343</ele>
        <time>2010-01-01T00:02:57Z</time>
      </trkpt>
      <trkpt lat="44.76835" lon="0.76748">
        <ele>136.306412</ele>
        <time>2010-01-01T00:03:01Z</time>
      </trkpt>
      <trkpt lat="44.76843" lon="0.76771">
        <ele>136.080566</ele>
        <time>2010-01-01T00:03:08Z</time>
      </trkpt>
      <trkpt lat="44.76867" lon="0.76776">
        <ele>134.784164</ele>
        <time>2010-01-01T00:03:18Z</time>
      </trkpt>
      <trkpt lat="44.76873" lon="0.76806">
        <ele>133.247757</ele>
        <time>2010-01-01T00:03:27Z</time>
      </trkpt>
      <trkpt lat="44.76879" lon="0.77051">
        <ele>124.607498</ele>
        <time>2010-01-01T00:04:36Z</time>
      </trkpt>
      <trkpt lat="44.76874" lon="0.77101">
        <ele>127.554375</ele>
        <time>2010-01-01T00:04:51Z</time>
      </trkpt>
      <trkpt lat="44.76835" lon="0.7722">
        <ele>130.910767</ele>
        <time>2010-01-01T00:05:28Z</time>
      </trkpt>
      <trkpt lat="44.76808" lon="0.7736">
        <ele>124.224869</ele>
        <time>2010-01-01T00:06:10Z</time>
      </trkpt>
      <trkpt lat="44.7679" lon="0.77415">
        <ele>117.674973</ele>
        <time>2010-01-01T00:06:27Z</time>
      </trkpt>
      <trkpt lat="44.76797" lon="0.77497">
        <ele>109.342873</ele>
        <time>2010-01-01T00:06:50Z</time>
      </trkpt>
      <trkpt lat="44.76815" lon="0.77579">
        <ele>111.163666</ele>
        <time>2010-01-01T00:07:14Z</time>
      </trkpt>
      <trkpt lat="44.7684" lon="0.77619">
        <ele>116.402504</ele>
        <time>2010-01-01T00:07:29Z</time>
      </trkpt>
      <trkpt lat="44.76845" lon="0.77652">
        <ele>120.571251</ele>
        <time>2010-01-01T00:07:39Z</time>
      </trkpt>
      <trkpt lat="44.76848" lon="0.77719">
        <ele>124.599594</ele>
        <time>2010-01-01T00:07:58Z</time>
      </trkpt>
      <trkpt lat="44.76871" lon="0.77907">
        <ele>130.271255</ele>
        <time>2010-01-01T00:08:52Z</time>
      </trkpt>
      <trkpt lat="44.76869" lon="0.78064">
        <ele>131.786285</ele>
        <time>2010-01-01T00:09:37Z</time>
      </trkpt>
      <trkpt lat="44.76876" lon="0.78158">
        <ele>134.935379</ele>
        <time>2010-01-01T00:10:04Z</time>
      </trkpt>
      <trkpt lat="44.76869" lon="0.78241">
        <ele>136.753967</ele>
        <time>2010-01-01T00:10:28Z</time>
      </trkpt>
      <trkpt lat="44.76834" lon="0.78373">
        <ele>134.287201</ele>
        <time>2010-01-01T00:11:08Z</time>
      </trkpt>
      <trkpt lat="44.7681" lon="0.78491">
        <ele>129.554993</ele>
        <time>2010-01-01T00:11:43Z</time>
      </trkpt>
      <trkpt lat="44.76811" lon="0.78547">
        <ele>129.576675</ele>
        <time>2010-01-01T00:11:58Z</time>
      </trkpt>
      <trkpt lat="44.76819" lon="0.78604">
        <ele>130.785004</ele>
        <time>2010-01-01T00:12:15Z</time>
      </trkpt>
      <trkpt lat="44.76832" lon="0.78651">
        <ele>132.380371</ele>
        <time>2010-01-01T00:12:29Z</time>
      </trkpt>
      <trkpt lat="44.76857" lon="0.78678">
        <ele>135.815353</ele>
        <time>2010-01-01T00:12:42Z</time>
      </trkpt>
      <trkpt lat="44.76861" lon="0.78725">
        <ele>137.135468</ele>
        <time>2010-01-01T00:12:55Z</time>
      </trkpt>
      <trkpt lat="44.76851" lon="0.7886">
        <ele>134.852707</ele>
        <time>2010-01-01T00:13:34Z</time>
      </trkpt>
      <trkpt lat="44.76843" lon="0.78889">
        <ele>133.85849</ele>
        <time>2010-01-01T00:13:43Z</time>
      </trkpt>
      <trkpt lat="44.7684" lon="0.79027">
        <ele>130.250626</ele>
        <time>2010-01-01T00:14:22Z</time>
      </trkpt>
      <trkpt lat="44.76801" lon="0.79068">
        <ele>124.633232</ele>
        <time>2010-01-01T00:14:42Z</time>
      </trkpt>
      <trkpt lat="44.76778" lon="0.79105">
        <ele>120.477844</ele>
        <time>2010-01-01T00:14:56Z</time>
      </trkpt>
      <trkpt lat="44.76772" lon="0.79191">
        <ele>109.96151</ele>
        <time>2010-01-01T00:15:20Z</time>
      </trkpt>
      <trkpt lat="44.76788" lon="0.79268">
        <ele>102.894844</ele>
        <time>2010-01-01T00:15:43Z</time>
      </trkpt>
      <trkpt lat="44.76782" lon="0.79303">
        <ele>97.22039</ele>
        <time>2010-01-01T00:15:53Z</time>
      </trkpt>
      <trkpt lat="44.76774" lon="0.79316">
        <ele>93.822121</ele>
        <time>2010-01-01T00:15:58Z</time>
      </trkpt>
      <trkpt lat="44.76729" lon="0.79316">
        <ele>92.160378</ele>
        <time>2010-01-01T00:16:16Z</time>
      </trkpt>
      <trkpt lat="44.76705" lon="0.79328">
        <ele>90.575439</ele>
        <time>2010-01-01T00:16:26Z</time>
      </trkpt>
      <trkpt lat="44.76705" lon="0.79354">
        <ele>89.644424</ele>
        <time>2010-01-01T00:16:34Z</time>
      </trkpt>
      <trkpt lat="44.76813" lon="0.7946">
        <ele>84.230614</ele>
        <time>2010-01-01T00:17:26Z</time>
      </trkpt>
      <trkpt lat="44.76857" lon="0.79524">
        <ele>81.561699</ele>
        <time>2010-01-01T00:17:52Z</time>
      </trkpt>
      <trkpt lat="44.76941" lon="0.79665">
        <ele>77.850563</ele>
        <time>2010-01-01T00:18:44Z</time>
      </trkpt>
      <trkpt lat="44.76955" lon="0.79717">
        <ele>74.932053</ele>
        <time>2010-01-01T00:19:00Z</time>
      </trkpt>
      <trkpt lat="44.76921" lon="0.79855">
        <ele>70.269638</ele>
        <time>2010-01-01T00:19:41Z</time>
      </trkpt>
      <trkpt lat="44.76932" lon="0.79917">
        <ele>66.896858</ele>
        <time>2010-01-01T00:19:59Z</time>
      </trkpt>
      <trkpt lat="44.76948" lon="0.80122">
        <ele>72.634064</ele>
        <time>2010-01-01T00:20:58Z</time>
      </trkpt>
      <trkpt lat="44.76967" lon="0.80183">
        <ele>77.202606</ele>
        <time>2010-01-01T00:21:17Z</time>
      </trkpt>
      <trkpt lat="44.77003" lon="0.80402">
        <ele>83.562897</ele>
        <time>2010-01-01T00:22:21Z</time>
      </trkpt>
      <trkpt lat="44.7704" lon="0.80505">
        <ele>81.857498</ele>
        <time>2010-01-01T00:22:54Z</time>
      </trkpt>
      <trkpt lat="44.7707" lon="0.80645">
        <ele>85.203445</ele>
        <time>2010-01-01T00:23:35Z</time>
      </trkpt>
      <trkpt lat="44.77044" lon="0.80886">
        <ele>92.770653</ele>
        <time>2010-01-01T00:24:45Z</time>
      </trkpt>
      <trkpt lat="44.77042" lon="0.80945">
        <ele>92.754845</ele>
        <time>2010-01-01T00:25:01Z</time>
      </trkpt>
      <trkpt lat="44.77074" lon="0.81066">
        <ele>94.144279</ele>
        <time>2010-01-01T00:25:38Z</time>
      </trkpt>
      <trkpt lat="44.77146" lon="0.81138">
        <ele>101.060188</ele>
        <time>2010-01-01T00:26:13Z</time>
      </trkpt>
      <trkpt lat="44.77295" lon="0.81364">
        <ele>116.041115</ele>
        <time>2010-01-01T00:27:41Z</time>
      </trkpt>
      <trkpt lat="44.77301" lon="0.8138">
        <ele>118.47641</ele>
        <time>2010-01-01T00:27:46Z</time>
      </trkpt>
      <trkpt lat="44.77287" lon="0.81388">
        <ele>119.118111</ele>
        <time>2010-01-01T00:27:52Z</time>
      </trkpt>
      <trkpt lat="44.77265" lon="0.81383">
        <ele>120.192329</ele>
        <time>2010-01-01T00:28:01Z</time>
      </trkpt>
      <trkpt lat="44.77261" lon="0.81392">
        <ele>121.696999</ele>
        <time>2010-01-01T00:28:04Z</time>
      </trkpt>
      <trkpt lat="44.77272" lon="0.81405">
        <ele>122.701332</ele>
        <time>2010-01-01T00:28:09Z</time>
      </trkpt>
      <trkpt lat="44.77289" lon="0.81413">
        <ele>122.625595</ele>
        <time>2010-01-01T00:28:16Z</time>
      </trkpt>
      <trkpt lat="44.77291" lon="0.81421">
        <ele>123.55024</ele>
        <time>2010-01-01T00:28:19Z</time>
      </trkpt>
      <trkpt lat="44.77266" lon="0.81518">
        <ele>137.225418</ele>
        <time>2010-01-01T00:28:48Z</time>
      </trkpt>
      <trkpt lat="44.77286" lon="0.81514">
        <ele>142.368546</ele>
        <time>2010-01-01T00:28:56Z</time>
      </trkpt>
      <trkpt lat="44.77305" lon="0.81517">
        <ele>147.458374</ele>
        <time>2010-01-01T00:29:04Z</time>
      </trkpt>
      <trkpt lat="44.7731" lon="0.8151">
        <ele>148.105637</ele>
        <time>2010-01-01T00:29:07Z</time>
      </trkpt>
      <trkpt lat="44.77321" lon="0.8151">
        <ele>150.723618</ele>
        <time>2010-01-01T00:29:11Z</time>
      </trkpt>
      <trkpt lat="44.77399" lon="0.81579">
        <ele>163.331451</ele>
        <time>2010-01-01T00:29:48Z</time>
      </trkpt>
      <trkpt lat="44.77407" lon="0.81581">
        <ele>163.765182</ele>
        <time>2010-01-01T00:29:52Z</time>
      </trkpt>
      <trkpt lat="44.77431" lon="0.8157">
        <ele>163.963425</ele>
        <time>2010-01-01T00:30:02Z</time>
      </trkpt>
      <trkpt lat="44.77427" lon="0.81592">
        <ele>165.250397</ele>
        <time>2010-01-01T00:30:08Z</time>
      </trkpt>
      <trkpt lat="44.77406" lon="0.81615">
        <ele>165.308762</ele>
        <time>2010-01-01T00:30:19Z</time>
      </trkpt>
      <trkpt lat="44.77409" lon="0.81626">
        <ele>165.207626</ele>
        <time>2010-01-01T00:30:22Z</time>
      </trkpt>
      <trkpt lat="44.77405" lon="0.81585">
        <ele>163.831787</ele>
        <time>2010-01-01T00:30:34Z</time>
      </trkpt>
      <trkpt lat="44.77442" lon="0.81577">
        <ele>164.407455</ele>
        <time>2010-01-01T00:30:49Z</time>
      </trkpt>
      <trkpt lat="44.77441" lon="0.81568">
        <ele>163.773941</ele>
        <time>2010-01-01T00:30:52Z</time>
      </trkpt>
      <trkpt lat="44.7743" lon="0.81563">
        <ele>163.552795</ele>
        <time>2010-01-01T00:30:56Z</time>
      </trkpt>
      <trkpt lat="44.77445" lon="0.81566">
        <ele>163.588455</ele>
        <time>2010-01-01T00:31:03Z</time>
      </trkpt>
      <trkpt lat="44.77428" lon="0.81547">
        <ele>162.157593</ele>
        <time>2010-01-01T00:31:12Z</time>
      </trkpt>
      <trkpt lat="44.77437" lon="0.81559">
        <ele>163.149734</ele>
        <time>2010-01-01T00:31:17Z</time>
      </trkpt>
      <trkpt lat="44.77434" lon="0.81544">
        <ele>161.74382</ele>
        <time>2010-01-01T00:31:21Z</time>
      </trkpt>
      <trkpt lat="44.77417" lon="0.81519">
        <ele>158.918182</ele>
        <time>2010-01-01T00:31:31Z</time>
      </trkpt>
      <trkpt lat="44.77401" lon="0.81507">
        <ele>157.530197</ele>
        <time>2010-01-01T00:31:38Z</time>
      </trkpt>
      <trkpt lat="44.77405" lon="0.81507">
        <ele>157.531494</ele>
        <time>2010-01-01T00:31:40Z</time>
      </trkpt>
      <trkpt lat="44.77442" lon="0.81542">
        <ele>161.259048</ele>
        <time>2010-01-01T00:31:58Z</time>
      </trkpt>
      <trkpt lat="44.77425" lon="0.8154">
        <ele>161.402756</ele>
        <time>2010-01-01T00:32:04Z</time>
      </trkpt>
      <trkpt lat="44.77428" lon="0.81562">
        <ele>163.456406</ele>
        <time>2010-01-01T00:32:11Z</time>
      </trkpt>
      <trkpt lat="44.77427" lon="0.81554">
        <ele>162.974625</ele>
        <time>2010-01-01T00:32:13Z</time>
      </trkpt>
      <trkpt lat="44.77412" lon="0.81549">
        <ele>161.991486</ele>
        <time>2010-01-01T00:32:19Z</time>
      </trkpt>
      <trkpt lat="44.77416" lon="0.8156">
        <ele>163.031448</ele>
        <time>2010-01-01T00:32:23Z</time>
      </trkpt>
      <trkpt lat="44.77412" lon="0.81544">
        <ele>161.494614</ele>
        <time>2010-01-01T00:32:28Z</time>
      </trkpt>
      <trkpt lat="44.7742" lon="0.81558">
        <ele>163.039658</ele>
        <time>2010-01-01T00:32:33Z</time>
      </trkpt>
      <trkpt lat="44.77419" lon="0.81546">
        <ele>161.853973</ele>
        <time>2010-01-01T00:32:37Z</time>
      </trkpt>
      <trkpt lat="44.77425" lon="0.81561">
        <ele>163.303757</ele>
        <time>2010-01-01T00:32:42Z</time>
      </trkpt>
      <trkpt lat="44.77428" lon="0.81558">
        <ele>163.22435</ele>
        <time>2010-01-01T00:32:43Z</time>
      </trkpt>
      <trkpt lat="44.77449" lon="0.81574">
        <ele>164.113358</ele>
        <time>2010-01-01T00:32:53Z</time>
      </trkpt>
      <trkpt lat="44.77443" lon="0.81563">
        <ele>163.369873</ele>
        <time>2010-01-01T00:32:57Z</time>
      </trkpt>
      <trkpt lat="44.77491" lon="0.81602">
        <ele>166.210388</ele>
        <time>2010-01-01T00:33:19Z</time>
      </trkpt>
      <trkpt lat="44.77491" lon="0.81619">
        <ele>167.754242</ele>
        <time>2010-01-01T00:33:24Z</time>
      </trkpt>
      <trkpt lat="44.7747" lon="0.81665">
        <ele>168.343124</ele>
        <time>2010-01-01T00:33:39Z</time>
      </trkpt>
      <trkpt lat="44.77476" lon="0.81676">
        <ele>168.954376</ele>
        <time>2010-01-01T00:33:43Z</time>
      </trkpt>
      <trkpt lat="44.77453" lon="0.817">
        <ele>165.343262</ele>
        <time>2010-01-01T00:33:55Z</time>
      </trkpt>
      <trkpt lat="44.77395" lon="0.81669">
        <ele>161.73468</ele>
        <time>2010-01-01T00:34:20Z</time>
      </trkpt>
      <trkpt lat="44.77381" lon="0.81647">
        <ele>161.499664</ele>
        <time>2010-01-01T00:34:28Z</time>
      </trkpt>
      <trkpt lat="44.7738" lon="0.81602">
        <ele>162.832108</ele>
        <time>2010-01-01T00:34:41Z</time>
      </trkpt>
      <trkpt lat="44.77403" lon="0.8158">
        <ele>163.578278</ele>
        <time>2010-01-01T00:34:52Z</time>
      </trkpt>
      <trkpt lat="44.77434" lon="0.81579">
        <ele>164.578506</ele>
        <time>2010-01-01T00:35:05Z</time>
      </trkpt>
      <trkpt lat="44.77447" lon="0.81557">
        <ele>162.888626</ele>
        <time>2010-01-01T00:35:13Z</time>
      </trkpt>
      <trkpt lat="44.77475" lon="0.81562">
        <ele>162.833115</ele>
        <time>2010-01-01T00:35:24Z</time>
      </trkpt>
      <trkpt lat="44.77492" lon="0.81526">
        <ele>157.136429</ele>
        <time>2010-01-01T00:35:36Z</time>
      </trkpt>
      <trkpt lat="44.77492" lon="0.81427">
        <ele>140.796722</ele>
        <time>2010-01-01T00:36:04Z</time>
      </trkpt>
      <trkpt lat="44.77581" lon="0.81491">
        <ele>149.023682</ele>
        <time>2010-01-01T00:36:45Z</time>
      </trkpt>
      <trkpt lat="44.77618" lon="0.81536">
        <ele>152.421188</ele>
        <time>2010-01-01T00:37:04Z</time>
      </trkpt>
      <trkpt lat="44.77635" lon="0.81545">
        <ele>152.564346</ele>
        <time>2010-01-01T00:37:11Z</time>
      </trkpt>
      <trkpt lat="44.77666" lon="0.81535">
        <ele>151.649948</ele>
        <time>2010-01-01T00:37:24Z</time>
      </trkpt>
      <trkpt lat="44.77683" lon="0.81511">
        <ele>151.511444</ele>
        <time>2010-01-01T00:37:34Z</time>
      </trkpt>
      <trkpt lat="44.7772" lon="0.8154">
        <ele>153.845627</ele>
        <time>2010-01-01T00:37:51Z</time>
      </trkpt>
      <trkpt lat="44.77767" lon="0.81567">
        <ele>156.725906</ele>
        <time>2010-01-01T00:38:11Z</time>
      </trkpt>
      <trkpt lat="44.77792" lon="0.81595">
        <ele>158.21579</ele>
        <time>2010-01-01T00:38:24Z</time>
      </trkpt>
      <trkpt lat="44.7785" lon="0.81541">
        <ele>162.669769</ele>
        <time>2010-01-01T00:38:52Z</time>
      </trkpt>
      <trkpt lat="44.77898" lon="0.81483">
        <ele>164.403748</ele>
        <time>2010-01-01T00:39:17Z</time>
      </trkpt>
      <trkpt lat="44.77944" lon="0.81453">
        <ele>167.330032</ele>
        <time>2010-01-01T00:39:37Z</time>
      </trkpt>
      <trkpt lat="44.78011" lon="0.81423">
        <ele>171.908249</ele>
        <time>2010-01-01T00:40:05Z</time>
      </trkpt>
      <trkpt lat="44.78071" lon="0.81378">
        <ele>173</ele>
        <time>2010-01-01T00:40:32Z</time>
      </trkpt>
      <trkpt lat="44.78104" lon="0.81333">
        <ele>172.781876</ele>
        <time>2010-01-01T00:40:51Z</time>
      </trkpt>
      <trkpt lat="44.78165" lon="0.81132">
        <ele>166.168747</ele>
        <time>2010-01-01T00:41:53Z</time>
      </trkpt>
      <trkpt lat="44.7818" lon="0.81102">
        <ele>164.157074</ele>
        <time>2010-01-01T00:42:03Z</time>
      </trkpt>
      <trkpt lat="44.78227" lon="0.81146">
        <ele>162.619034</ele>
        <time>2010-01-01T00:42:26Z</time>
      </trkpt>
      <trkpt lat="44.78265" lon="0.81195">
        <ele>160.070999</ele>
        <time>2010-01-01T00:42:47Z</time>
      </trkpt>
      <trkpt lat="44.78311" lon="0.81229">
        <ele>156.616257</ele>
        <time>2010-01-01T00:43:08Z</time>
      </trkpt>
      <trkpt lat="44.78367" lon="0.81192">
        <ele>152.127502</ele>
        <time>2010-01-01T00:43:32Z</time>
      </trkpt>
      <trkpt lat="44.78396" lon="0.81136">
        <ele>149.796692</ele>
        <time>2010-01-01T00:43:52Z</time>
      </trkpt>
      <trkpt lat="44.78422" lon="0.81108">
        <ele>147.391891</ele>
        <time>2010-01-01T00:44:05Z</time>
      </trkpt>
      <trkpt lat="44.7847" lon="0.81026">
        <ele>145.116333</ele>
        <time>2010-01-01T00:44:35Z</time>
      </trkpt>
      <trkpt lat="44.78561" lon="0.80962">
        <ele>139.635788</ele>
        <time>2010-01-01T00:45:16Z</time>
      </trkpt>
      <trkpt lat="44.78654" lon="0.8081">
        <ele>132.555771</ele>
        <time>2010-01-01T00:46:13Z</time>
      </trkpt>
      <trkpt lat="44.78661" lon="0.80767">
        <ele>133.172195</ele>
        <time>2010-01-01T00:46:25Z</time>
      </trkpt>
      <trkpt lat="44.78683" lon="0.80717">
        <ele>132.79248</ele>
        <time>2010-01-01T00:46:42Z</time>
      </trkpt>
      <trkpt lat="44.7871" lon="0.80703">
        <ele>130.318436</ele>
        <time>2010-01-01T00:46:54Z</time>
      </trkpt>
      <trkpt lat="44.78747" lon="0.80651">
        <ele>127.669952</ele>
        <time>2010-01-01T00:47:15Z</time>
      </trkpt>
      <trkpt lat="44.78813" lon="0.80752">
        <ele>119.20372</ele>
        <time>2010-01-01T00:47:54Z</time>
      </trkpt>
      <trkpt lat="44.78834" lon="0.80747">
        <ele>119.261154</ele>
        <time>2010-01-01T00:48:02Z</time>
      </trkpt>
      <trkpt lat="44.7888" lon="0.8067">
        <ele>121.094101</ele>
        <time>2010-01-01T00:48:31Z</time>
      </trkpt>
      <trkpt lat="44.79026" lon="0.80584">
        <ele>117.708084</ele>
        <time>2010-01-01T00:49:34Z</time>
      </trkpt>
      <trkpt lat="44.7906" lon="0.80546">
        <ele>116.941956</ele>
        <time>2010-01-01T00:49:51Z</time>
      </trkpt>
      <trkpt lat="44.79095" lon="0.80494">
        <ele>115.989761</ele>
        <time>2010-01-01T00:50:12Z</time>
      </trkpt>
      <trkpt lat="44.79115" lon="0.8044">
        <ele>115.40049</ele>
        <time>2010-01-01T00:50:29Z</time>
      </trkpt>
      <trkpt lat="44.79135" lon="0.80407">
        <ele>114.347252</ele>
        <time>2010-01-01T00:50:42Z</time>
      </trkpt>
      <trkpt lat="44.79223" lon="0.80162">
        <ele>109.447334</ele>
        <time>2010-01-01T00:52:00Z</time>
      </trkpt>
      <trkpt lat="44.79219" lon="0.8007">
        <ele>115.753143</ele>
        <time>2010-01-01T00:52:26Z</time>
      </trkpt>
      <trkpt lat="44.79207" lon="0.80045">
        <ele>120.363747</ele>
        <time>2010-01-01T00:52:34Z</time>
      </trkpt>
      <trkpt lat="44.79203" lon="0.80017">
        <ele>122.543495</ele>
        <time>2010-01-01T00:52:42Z</time>
      </trkpt>
      <trkpt lat="44.79236" lon="0.79769">
        <ele>116.558128</ele>
        <time>2010-01-01T00:53:54Z</time>
      </trkpt>
      <trkpt lat="44.79234" lon="0.79723">
        <ele>117.134117</ele>
        <time>2010-01-01T00:54:07Z</time>
      </trkpt>
      <trkpt lat="44.79243" lon="0.79677">
        <ele>117.272675</ele>
        <time>2010-01-01T00:54:21Z</time>
      </trkpt>
      <trkpt lat="44.79308" lon="0.79572">
        <ele>119.079315</ele>
        <time>2010-01-01T00:55:00Z</time>
      </trkpt>
      <trkpt lat="44.79398" lon="0.79327">
        <ele>110.018295</ele>
        <time>2010-01-01T00:56:19Z</time>
      </trkpt>
      <trkpt lat="44.79455" lon="0.79261">
        <ele>105.238747</ele>
        <time>2010-01-01T00:56:48Z</time>
      </trkpt>
      <trkpt lat="44.79493" lon="0.79181">
        <ele>102.909142</ele>
        <time>2010-01-01T00:57:15Z</time>
      </trkpt>
      <trkpt lat="44.7954" lon="0.7905">
        <ele>102.635628</ele>
        <time>2010-01-01T00:57:57Z</time>
      </trkpt>
      <trkpt lat="44.79536" lon="0.78999">
        <ele>104.524551</ele>
        <time>2010-01-01T00:58:12Z</time>
      </trkpt>
      <trkpt lat="44.79547" lon="0.78903">
        <ele>105.339279</ele>
        <time>2010-01-01T00:58:39Z</time>
      </trkpt>
      <trkpt lat="44.79547" lon="0.78826">
        <ele>105.142151</ele>
        <time>2010-01-01T00:59:01Z</time>
      </trkpt>
      <trkpt lat="44.79534" lon="0.78771">
        <ele>106.009987</ele>
        <time>2010-01-01T00:59:18Z</time>
      </trkpt>
      <trkpt lat="44.79513" lon="0.78736">
        <ele>107.596275</ele>
        <time>2010-01-01T00:59:31Z</time>
      </trkpt>
      <trkpt lat="44.79507" lon="0.7871">
        <ele>107.670074</ele>
        <time>2010-01-01T00:59:39Z</time>
      </trkpt>
      <trkpt lat="44.7952" lon="0.78656">
        <ele>107.461716</ele>
        <time>2010-01-01T00:59:55Z</time>
      </trkpt>
      <trkpt lat="44.79504" lon="0.78581">
        <ele>110.210594</ele>
        <time>2010-01-01T01:00:17Z</time>
      </trkpt>
      <trkpt lat="44.79506" lon="0.78518">
        <ele>106.413414</ele>
        <time>2010-01-01T01:00:35Z</time>
      </trkpt>
      <trkpt lat="44.79547" lon="0.7855">
        <ele>102.086586</ele>
        <time>2010-01-01T01:00:53Z</time>
      </trkpt>
      <trkpt lat="44.79629" lon="0.78584">
        <ele>95.541756</ele>
        <time>2010-01-01T01:01:28Z</time>
      </trkpt>
      <trkpt lat="44.79687" lon="0.78652">
        <ele>92.596748</ele>
        <time>2010-01-01T01:01:58Z</time>
      </trkpt>
      <trkpt lat="44.7974" lon="0.78756">
        <ele>99.194099</ele>
        <time>2010-01-01T01:02:34Z</time>
      </trkpt>
      <trkpt lat="44.79777" lon="0.78779">
        <ele>98.67379</ele>
        <time>2010-01-01T01:02:51Z</time>
      </trkpt>
      <trkpt lat="44.79874" lon="0.78785">
        <ele>97.024086</ele>
        <time>2010-01-01T01:03:30Z</time>
      </trkpt>
      <trkpt lat="44.80016" lon="0.78821">
        <ele>101.149452</ele>
        <time>2010-01-01T01:04:27Z</time>
      </trkpt>
      <trkpt lat="44.80062" lon="0.78827">
        <ele>100.220901</ele>
        <time>2010-01-01T01:04:46Z</time>
      </trkpt>
      <trkpt lat="44.80101" lon="0.78853">
        <ele>100.278587</ele>
        <time>2010-01-01T01:05:03Z</time>
      </trkpt>
      <trkpt lat="44.80135" lon="0.78859">
        <ele>100.985031</ele>
        <time>2010-01-01T01:05:17Z</time>
      </trkpt>
      <trkpt lat="44.80178" lon="0.78875">
        <ele>102.967003</ele>
        <time>2010-01-01T01:05:35Z</time>
      </trkpt>
      <trkpt lat="44.80216" lon="0.789">
        <ele>105.240471</ele>
        <time>2010-01-01T01:05:51Z</time>
      </trkpt>
      <trkpt lat="44.80281" lon="0.78985">
        <ele>105.29113</ele>
        <time>2010-01-01T01:06:27Z</time>
      </trkpt>
      <trkpt lat="44.80293" lon="0.78976">
        <ele>106.033447</ele>
        <time>2010-01-01T01:06:32Z</time>
      </trkpt>
      <trkpt lat="44.80278" lon="0.78956">
        <ele>105.961174</ele>
        <time>2010-01-01T01:06:41Z</time>
      </trkpt>
      <trkpt lat="44.80263" lon="0.78867">
        <ele>110.801353</ele>
        <time>2010-01-01T01:07:07Z</time>
      </trkpt>
      <trkpt lat="44.80246" lon="0.78837">
        <ele>111.98304</ele>
        <time>2010-01-01T01:07:18Z</time>
      </trkpt>
      <trkpt lat="44.80242" lon="0.78806">
        <ele>114.266098</ele>
        <time>2010-01-01T01:07:27Z</time>
      </trkpt>
      <trkpt lat="44.80255" lon="0.78695">
        <ele>120.616951</ele>
        <time>2010-01-01T01:07:59Z</time>
      </trkpt>
      <trkpt lat="44.80282" lon="0.7855">
        <ele>128.324799</ele>
        <time>2010-01-01T01:08:41Z</time>
      </trkpt>
      <trkpt lat="44.80273" lon="0.78525">
        <ele>132.117554</ele>
        <time>2010-01-01T01:08:49Z</time>
      </trkpt>
      <trkpt lat="44.80283" lon="0.78352">
        <ele>146.035553</ele>
        <time>2010-01-01T01:09:38Z</time>
      </trkpt>
      <trkpt lat="44.80293" lon="0.78331">
        <ele>147.058319</ele>
        <time>2010-01-01T01:09:46Z</time>
      </trkpt>
      <trkpt lat="44.80328" lon="0.78198">
        <ele>159.145676</ele>
        <time>2010-01-01T01:10:26Z</time>
      </trkpt>
      <trkpt lat="44.80347" lon="0.78087">
        <ele>164.926697</ele>
        <time>2010-01-01T01:10:58Z</time>
      </trkpt>
      <trkpt lat="44.80369" lon="0.78012">
        <ele>165.493668</ele>
        <time>2010-01-01T01:11:22Z</time>
      </trkpt>
      <trkpt lat="44.80425" lon="0.77925">
        <ele>159.601883</ele>
        <time>2010-01-01T01:11:55Z</time>
      </trkpt>
      <trkpt lat="44.80456" lon="0.77853">
        <ele>152.503448</ele>
        <time>2010-01-01T01:12:19Z</time>
      </trkpt>
      <trkpt lat="44.80401" lon="0.77692">
        <ele>139.635818</ele>
        <time>2010-01-01T01:13:09Z</time>
      </trkpt>
      <trkpt lat="44.80362" lon="0.77611">
        <ele>133.972504</ele>
        <time>2010-01-01T01:13:37Z</time>
      </trkpt>
      <trkpt lat="44.8036" lon="0.7758">
        <ele>132.035004</ele>
        <time>2010-01-01T01:13:46Z</time>
      </trkpt>
      <trkpt lat="44.80393" lon="0.77571">
        <ele>131.204208</ele>
        <time>2010-01-01T01:13:59Z</time>
      </trkpt>
      <trkpt lat="44.80506" lon="0.77479">
        <ele>143.731949</ele>
        <time>2010-01-01T01:14:52Z</time>
      </trkpt>
      <trkpt lat="44.80605" lon="0.77417">
        <ele>151.106247</ele>
        <time>2010-01-01T01:15:35Z</time>
      </trkpt>
      <trkpt lat="44.80619" lon="0.77271">
        <ele>155.610107</ele>
        <time>2010-01-01T01:16:17Z</time>
      </trkpt>
      <trkpt lat="44.80641" lon="0.77255">
        <ele>156.952805</ele>
        <time>2010-01-01T01:16:27Z</time>
      </trkpt>
      <trkpt lat="44.80726" lon="0.77229">
        <ele>160.616882</ele>
        <time>2010-01-01T01:17:02Z</time>
      </trkpt>
      <trkpt lat="44.80712" lon="0.77126">
        <ele>157.371872</ele>
        <time>2010-01-01T01:17:32Z</time>
      </trkpt>
      <trkpt lat="44.80675" lon="0.77053">
        <ele>154.669128</ele>
        <time>2010-01-01T01:17:57Z</time>
      </trkpt>
      <trkpt lat="44.80635" lon="0.76992">
        <ele>156.068466</ele>
        <time>2010-01-01T01:18:21Z</time>
      </trkpt>
      <trkpt lat="44.80605" lon="0.76992">
        <ele>156.671494</ele>
        <time>2010-01-01T01:18:33Z</time>
      </trkpt>
      <trkpt lat="44.80593" lon="0.76983">
        <ele>156.747192</ele>
        <time>2010-01-01T01:18:38Z</time>
      </trkpt>
      <trkpt lat="44.80573" lon="0.76916">
        <ele>158.421494</ele>
        <time>2010-01-01T01:18:59Z</time>
      </trkpt>
      <trkpt lat="44.80587" lon="0.76861">
        <ele>160.176819</ele>
        <time>2010-01-01T01:19:15Z</time>
      </trkpt>
      <trkpt lat="44.80536" lon="0.76729">
        <ele>160.567703</ele>
        <time>2010-01-01T01:19:58Z</time>
      </trkpt>
      <trkpt lat="44.8047" lon="0.76604">
        <ele>160.857498</ele>
        <time>2010-01-01T01:20:42Z</time>
      </trkpt>
      <trkpt lat="44.80458" lon="0.76562">
        <ele>160.904999</ele>
        <time>2010-01-01T01:20:55Z</time>
      </trkpt>
      <trkpt lat="44.80477" lon="0.76536">
        <ele>160.503677</ele>
        <time>2010-01-01T01:21:05Z</time>
      </trkpt>
      <trkpt lat="44.80499" lon="0.76523">
        <ele>159.349289</ele>
        <time>2010-01-01T01:21:15Z</time>
      </trkpt>
      <trkpt lat="44.80507" lon="0.76477">
        <ele>156.863541</ele>
        <time>2010-01-01T01:21:28Z</time>
      </trkpt>
      <trkpt lat="44.8048" lon="0.76363">
        <ele>152.529373</ele>
        <time>2010-01-01T01:22:02Z</time>
      </trkpt>
      <trkpt lat="44.80506" lon="0.76338">
        <ele>150.713165</ele>
        <time>2010-01-01T01:22:15Z</time>
      </trkpt>
      <trkpt lat="44.80556" lon="0.76326">
        <ele>147.896255</ele>
        <time>2010-01-01T01:22:35Z</time>
      </trkpt>
      <trkpt lat="44.80589" lon="0.76337">
        <ele>146.801254</ele>
        <time>2010-01-01T01:22:49Z</time>
      </trkpt>
      <trkpt lat="44.80651" lon="0.76305">
        <ele>142.913513</ele>
        <time>2010-01-01T01:23:15Z</time>
      </trkpt>
      <trkpt lat="44.80661" lon="0.76311">
        <ele>142.4664</ele>
        <time>2010-01-01T01:23:19Z</time>
      </trkpt>
      <trkpt lat="44.80658" lon="0.76345">
        <ele>143.334</ele>
        <time>2010-01-01T01:23:29Z</time>
      </trkpt>
      <trkpt lat="44.80663" lon="0.76349">
        <ele>142.892502</ele>
        <time>2010-01-01T01:23:32Z</time>
      </trkpt>
      <trkpt lat="44.80692" lon="0.76299">
        <ele>140.751587</ele>
        <time>2010-01-01T01:23:50Z</time>
      </trkpt>
      <trkpt lat="44.80847" lon="0.76083">
        <ele>150.480072</ele>
        <time>2010-01-01T01:25:17Z</time>
      </trkpt>
      <trkpt lat="44.80876" lon="0.76058">
        <ele>149.942505</ele>
        <time>2010-01-01T01:25:31Z</time>
      </trkpt>
      <trkpt lat="44.80923" lon="0.76003">
        <ele>148.876282</ele>
        <time>2010-01-01T01:25:55Z</time>
      </trkpt>
      <trkpt lat="44.81042" lon="0.75832">
        <ele>143.090225</ele>
        <time>2010-01-01T01:27:04Z</time>
      </trkpt>
      <trkpt lat="44.81104" lon="0.75804">
        <ele>142.824997</ele>
        <time>2010-01-01T01:27:29Z</time>
      </trkpt>
      <trkpt lat="44.81173" lon="0.75761">
        <ele>143.786224</ele>
        <time>2010-01-01T01:28:00Z</time>
      </trkpt>
      <trkpt lat="44.81209" lon="0.75725">
        <ele>144.537537</ele>
        <time>2010-01-01T01:28:17Z</time>
      </trkpt>
      <trkpt lat="44.81235" lon="0.75682">
        <ele>144.35965</ele>
        <time>2010-01-01T01:28:34Z</time>
      </trkpt>
      <trkpt lat="44.81263" lon="0.75664">
        <ele>144.395004</ele>
        <time>2010-01-01T01:28:46Z</time>
      </trkpt>
      <trkpt lat="44.81295" lon="0.7567">
        <ele>145.452499</ele>
        <time>2010-01-01T01:28:59Z</time>
      </trkpt>
      <trkpt lat="44.81375" lon="0.75655">
        <ele>145.362503</ele>
        <time>2010-01-01T01:29:31Z</time>
      </trkpt>
      <trkpt lat="44.81485" lon="0.75587">
        <ele>144.376801</ele>
        <time>2010-01-01T01:30:19Z</time>
      </trkpt>
      <trkpt lat="44.81514" lon="0.75554">
        <ele>144.492508</ele>
        <time>2010-01-01T01:30:34Z</time>
      </trkpt>
      <trkpt lat="44.81584" lon="0.75538">
        <ele>145.204269</ele>
        <time>2010-01-01T01:31:02Z</time>
      </trkpt>
      <trkpt lat="44.81629" lon="0.75534">
        <ele>144.491592</ele>
        <time>2010-01-01T01:31:20Z</time>
      </trkpt>
      <trkpt lat="44.81687" lon="0.75513">
        <ele>143.589111</ele>
        <time>2010-01-01T01:31:44Z</time>
      </trkpt>
      <trkpt lat="44.8173" lon="0.75511">
        <ele>143.815033</ele>
        <time>2010-01-01T01:32:02Z</time>
      </trkpt>
      <trkpt lat="44.81813" lon="0.75494">
        <ele>144.328476</ele>
        <time>2010-01-01T01:32:35Z</time>
      </trkpt>
      <trkpt lat="44.8184" lon="0.75457">
        <ele>143.783173</ele>
        <time>2010-01-01T01:32:50Z</time>
      </trkpt>
      <trkpt lat="44.81847" lon="0.75416">
        <ele>142.509369</ele>
        <time>2010-01-01T01:33:02Z</time>
      </trkpt>
      <trkpt lat="44.8184" lon="0.75407">
        <ele>142.583755</ele>
        <time>2010-01-01T01:33:06Z</time>
      </trkpt>
      <trkpt lat="44.81858" lon="0.75417">
        <ele>142.016876</ele>
        <time>2010-01-01T01:33:14Z</time>
      </trkpt>
      <trkpt lat="44.81895" lon="0.75344">
        <ele>138.970001</ele>
        <time>2010-01-01T01:33:39Z</time>
      </trkpt>
      <trkpt lat="44.82032" lon="0.75301">
        <ele>130.44928</ele>
        <time>2010-01-01T01:34:35Z</time>
      </trkpt>
      <trkpt lat="44.82109" lon="0.75284">
        <ele>126.980522</ele>
        <time>2010-01-01T01:35:07Z</time>
      </trkpt>
      <trkpt lat="44.82165" lon="0.75284">
        <ele>123.930748</ele>
        <time>2010-01-01T01:35:29Z</time>
      </trkpt>
      <trkpt lat="44.82185" lon="0.75323">
        <ele>121.351189</ele>
        <time>2010-01-01T01:35:43Z</time>
      </trkpt>
      <trkpt lat="44.82289" lon="0.75313">
        <ele>122.978752</ele>
        <time>2010-01-01T01:36:24Z</time>
      </trkpt>
      <trkpt lat="44.82327" lon="0.753">
        <ele>124.047501</ele>
        <time>2010-01-01T01:36:40Z</time>
      </trkpt>
      <trkpt lat="44.82393" lon="0.75241">
        <ele>125.266876</ele>
        <time>2010-01-01T01:37:12Z</time>
      </trkpt>
      <trkpt lat="44.82399" lon="0.75228">
        <ele>125.844376</ele>
        <time>2010-01-01T01:37:16Z</time>
      </trkpt>
      <trkpt lat="44.82485" lon="0.75208">
        <ele>125.932487</ele>
        <time>2010-01-01T01:37:50Z</time>
      </trkpt>
      <trkpt lat="44.82529" lon="0.75187">
        <ele>125.536148</ele>
        <time>2010-01-01T01:38:09Z</time>
      </trkpt>
      <trkpt lat="44.82571" lon="0.75132">
        <ele>126.197334</ele>
        <time>2010-01-01T01:38:32Z</time>
      </trkpt>
      <trkpt lat="44.82631" lon="0.7509">
        <ele>127.038795</ele>
        <time>2010-01-01T01:38:59Z</time>
      </trkpt>
      <trkpt lat="44.8266" lon="0.7506">
        <ele>128.631256</ele>
        <time>2010-01-01T01:39:13Z</time>
      </trkpt>
      <trkpt lat="44.82632" lon="0.75">
        <ele>128.152496</ele>
        <time>2010-01-01T01:39:34Z</time>
      </trkpt>
      <trkpt lat="44.82638" lon="0.7496">
        <ele>128.294357</ele>
        <time>2010-01-01T01:39:45Z</time>
      </trkpt>
      <trkpt lat="44.8269" lon="0.74834">
        <ele>121.534378</ele>
        <time>2010-01-01T01:40:27Z</time>
      </trkpt>
      <trkpt lat="44.82709" lon="0.74774">
        <ele>125.483131</ele>
        <time>2010-01-01T01:40:46Z</time>
      </trkpt>
      <trkpt lat="44.82742" lon="0.74709">
        <ele>127.981575</ele>
        <time>2010-01-01T01:41:08Z</time>
      </trkpt>
      <trkpt lat="44.82772" lon="0.74679">
        <ele>126.637253</ele>
        <time>2010-01-01T01:41:23Z</time>
      </trkpt>
      <trkpt lat="44.82836" lon="0.74624">
        <ele>121.001312</ele>
        <time>2010-01-01T01:41:53Z</time>
      </trkpt>
      <trkpt lat="44.82826" lon="0.74632">
        <ele>122.066063</ele>
        <time>2010-01-01T01:41:57Z</time>
      </trkpt>
      <trkpt lat="44.8282" lon="0.74649">
        <ele>123.163422</ele>
        <time>2010-01-01T01:42:02Z</time>
      </trkpt>
      <trkpt lat="44.82838" lon="0.74658">
        <ele>122.754654</ele>
        <time>2010-01-01T01:42:10Z</time>
      </trkpt>
      <trkpt lat="44.82852" lon="0.74708">
        <ele>123.909279</ele>
        <time>2010-01-01T01:42:25Z</time>
      </trkpt>
      <trkpt lat="44.82881" lon="0.74724">
        <ele>120.789886</ele>
        <time>2010-01-01T01:42:38Z</time>
      </trkpt>
      <trkpt lat="44.82926" lon="0.74737">
        <ele>112.550003</ele>
        <time>2010-01-01T01:42:56Z</time>
      </trkpt>
      <trkpt lat="44.83022" lon="0.74737">
        <ele>94.989876</ele>
        <time>2010-01-01T01:43:34Z</time>
      </trkpt>
      <trkpt lat="44.8307" lon="0.74751">
        <ele>86.162498</ele>
        <time>2010-01-01T01:43:54Z</time>
      </trkpt>
      <trkpt lat="44.83084" lon="0.74745">
        <ele>83.260002</ele>
        <time>2010-01-01T01:44:00Z</time>
      </trkpt>
      <trkpt lat="44.83109" lon="0.74724">
        <ele>82.414749</ele>
        <time>2010-01-01T01:44:12Z</time>
      </trkpt>
      <trkpt lat="44.83148" lon="0.74649">
        <ele>80.887543</ele>
        <time>2010-01-01T01:44:38Z</time>
      </trkpt>
      <trkpt lat="44.83235" lon="0.74532">
        <ele>76.012421</ele>
        <time>2010-01-01T01:45:26Z</time>
      </trkpt>
      <trkpt lat="44.83263" lon="0.74504">
        <ele>70.4254</ele>
        <time>2010-01-01T01:45:40Z</time>
      </trkpt>
      <trkpt lat="44.83238" lon="0.74478">
        <ele>74.70433</ele>
        <time>2010-01-01T01:45:52Z</time>
      </trkpt>
      <trkpt lat="44.83147" lon="0.74472">
        <ele>86.567963</ele>
        <time>2010-01-01T01:46:29Z</time>
      </trkpt>
      <trkpt lat="44.83104" lon="0.74462">
        <ele>94.854752</ele>
        <time>2010-01-01T01:46:46Z</time>
      </trkpt>
      <trkpt lat="44.83051" lon="0.74431">
        <ele>103.542046</ele>
        <time>2010-01-01T01:47:09Z</time>
      </trkpt>
      <trkpt lat="44.83008" lon="0.74441">
        <ele>106.606201</ele>
        <time>2010-01-01T01:47:27Z</time>
      </trkpt>
      <trkpt lat="44.83005" lon="0.74431">
        <ele>105.86985</ele>
        <time>2010-01-01T01:47:30Z</time>
      </trkpt>
      <trkpt lat="44.83055" lon="0.74294">
        <ele>101.558907</ele>
        <time>2010-01-01T01:48:14Z</time>
      </trkpt>
      <trkpt lat="44.83065" lon="0.7423">
        <ele>98.682518</ele>
        <time>2010-01-01T01:48:32Z</time>
      </trkpt>
      <trkpt lat="44.83116" lon="0.74138">
        <ele>92.75235</ele>
        <time>2010-01-01T01:49:05Z</time>
      </trkpt>
      <trkpt lat="44.83233" lon="0.73953">
        <ele>81.116127</ele>
        <time>2010-01-01T01:50:16Z</time>
      </trkpt>
      <trkpt lat="44.83223" lon="0.73904">
        <ele>81.686371</ele>
        <time>2010-01-01T01:50:30Z</time>
      </trkpt>
      <trkpt lat="44.83224" lon="0.7386">
        <ele>84.839996</ele>
        <time>2010-01-01T01:50:43Z</time>
      </trkpt>
      <trkpt lat="44.83245" lon="0.73873">
        <ele>88.705002</ele>
        <time>2010-01-01T01:50:52Z</time>
      </trkpt>
      <trkpt lat="44.83248" lon="0.73894">
        <ele>87.581718</ele>
        <time>2010-01-01T01:50:58Z</time>
      </trkpt>
      <trkpt lat="44.83267" lon="0.73947">
        <ele>85.393875</ele>
        <time>2010-01-01T01:51:15Z</time>
      </trkpt>
      <trkpt lat="44.83284" lon="0.73961">
        <ele>85.78302</ele>
        <time>2010-01-01T01:51:22Z</time>
      </trkpt>
      <trkpt lat="44.83289" lon="0.73959">
        <ele>86.459099</ele>
        <time>2010-01-01T01:51:24Z</time>
      </trkpt>
      <trkpt lat="44.83308" lon="0.74004">
        <ele>83.604462</ele>
        <time>2010-01-01T01:51:39Z</time>
      </trkpt>
      <trkpt lat="44.83304" lon="0.74001">
        <ele>86.20472</ele>
        <time>2010-01-01T01:51:41Z</time>
      </trkpt>
      <trkpt lat="44.83302" lon="0.73965">
        <ele>87.74456</ele>
        <time>2010-01-01T01:51:51Z</time>
      </trkpt>
      <trkpt lat="44.83312" lon="0.74076">
        <ele>67.138283</ele>
        <time>2010-01-01T01:52:23Z</time>
      </trkpt>
      <trkpt lat="44.83328" lon="0.7412">
        <ele>51.942955</ele>
        <time>2010-01-01T01:52:37Z</time>
      </trkpt>
      <trkpt lat="44.83335" lon="0.74118">
        <ele>50.230484</ele>
        <time>2010-01-01T01:52:40Z</time>
      </trkpt>
      <trkpt lat="44.83338" lon="0.74085">
        <ele>54.623505</ele>
        <time>2010-01-01T01:52:49Z</time>
      </trkpt>
      <trkpt lat="44.83334" lon="0.74119">
        <ele>50.316006</ele>
        <time>2010-01-01T01:52:59Z</time>
      </trkpt>
      <trkpt lat="44.83323" lon="0.74123">
        <ele>52.9697</ele>
        <time>2010-01-01T01:53:04Z</time>
      </trkpt>
      <trkpt lat="44.83326" lon="0.74134">
        <ele>52.916599</ele>
        <time>2010-01-01T01:53:07Z</time>
      </trkpt>
      <trkpt lat="44.83301" lon="0.74112">
        <ele>63.148224</ele>
        <time>2010-01-01T01:53:19Z</time>
      </trkpt>
      <trkpt lat="44.83287" lon="0.74085">
        <ele>70.299828</ele>
        <time>2010-01-01T01:53:28Z</time>
      </trkpt>
      <trkpt lat="44.8325" lon="0.74036">
        <ele>76.102531</ele>
        <time>2010-01-01T01:53:49Z</time>
      </trkpt>
      <trkpt lat="44.83235" lon="0.74001">
        <ele>78.55481</ele>
        <time>2010-01-01T01:54:00Z</time>
      </trkpt>
      <trkpt lat="44.83226" lon="0.73917">
        <ele>81.761909</ele>
        <time>2010-01-01T01:54:24Z</time>
      </trkpt>
      <trkpt lat="44.83195" lon="0.73793">
        <ele>88.276718</ele>
        <time>2010-01-01T01:55:02Z</time>
      </trkpt>
      <trkpt lat="44.83196" lon="0.73733">
        <ele>96.427979</ele>
        <time>2010-01-01T01:55:19Z</time>
      </trkpt>
      <trkpt lat="44.83172" lon="0.73659">
        <ele>104.017647</ele>
        <time>2010-01-01T01:55:42Z</time>
      </trkpt>
      <trkpt lat="44.83165" lon="0.73615">
        <ele>110.725815</ele>
        <time>2010-01-01T01:55:55Z</time>
      </trkpt>
      <trkpt lat="44.83138" lon="0.73567">
        <ele>117.463417</ele>
        <time>2010-01-01T01:56:12Z</time>
      </trkpt>
      <trkpt lat="44.83123" lon="0.7351">
        <ele>121.14875</ele>
        <time>2010-01-01T01:56:29Z</time>
      </trkpt>
      <trkpt lat="44.83081" lon="0.73396">
        <ele>117.451218</ele>
        <time>2010-01-01T01:57:06Z</time>
      </trkpt>
      <trkpt lat="44.83058" lon="0.73367">
        <ele>117.115623</ele>
        <time>2010-01-01T01:57:18Z</time>
      </trkpt>
      <trkpt lat="44.8304" lon="0.73327">
        <ele>117.33416</ele>
        <time>2010-01-01T01:57:32Z</time>
      </trkpt>
      <trkpt lat="44.83017" lon="0.73251">
        <ele>121.922531</ele>
        <time>2010-01-01T01:57:55Z</time>
      </trkpt>
      <trkpt lat="44.82995" lon="0.73269">
        <ele>121.763153</ele>
        <time>2010-01-01T01:58:05Z</time>
      </trkpt>
      <trkpt lat="44.82943" lon="0.73325">
        <ele>118.652794</ele>
        <time>2010-01-01T01:58:32Z</time>
      </trkpt>
      <trkpt lat="44.829" lon="0.73359">
        <ele>117.875687</ele>
        <time>2010-01-01T01:58:51Z</time>
      </trkpt>
      <trkpt lat="44.82778" lon="0.73406">
        <ele>120.747963</ele>
        <time>2010-01-01T01:59:42Z</time>
      </trkpt>
      <trkpt lat="44.82759" lon="0.73396">
        <ele>120.594849</ele>
        <time>2010-01-01T01:59:50Z</time>
      </trkpt>
      <trkpt lat="44.82721" lon="0.73193">
        <ele>103.290627</ele>
        <time>2010-01-01T02:00:49Z</time>
      </trkpt>
      <trkpt lat="44.82747" lon="0.73049">
        <ele>101.855537</ele>
        <time>2010-01-01T02:01:32Z</time>
      </trkpt>
      <trkpt lat="44.82698" lon="0.72984">
        <ele>102.404892</ele>
        <time>2010-01-01T02:01:59Z</time>
      </trkpt>
      <trkpt lat="44.82677" lon="0.7294">
        <ele>99.999222</ele>
        <time>2010-01-01T02:02:14Z</time>
      </trkpt>
      <trkpt lat="44.82631" lon="0.72874">
        <ele>92.586868</ele>
        <time>2010-01-01T02:02:40Z</time>
      </trkpt>
      <trkpt lat="44.82592" lon="0.72846">
        <ele>87.29232</ele>
        <time>2010-01-01T02:02:58Z</time>
      </trkpt>
      <trkpt lat="44.8255" lon="0.72794">
        <ele>83.473557</ele>
        <time>2010-01-01T02:03:20Z</time>
      </trkpt>
      <trkpt lat="44.82511" lon="0.72773">
        <ele>87.97641</ele>
        <time>2010-01-01T02:03:37Z</time>
      </trkpt>
      <trkpt lat="44.82476" lon="0.72739">
        <ele>92.898705</ele>
        <time>2010-01-01T02:03:53Z</time>
      </trkpt>
      <trkpt lat="44.8243" lon="0.72715">
        <ele>97.2295</ele>
        <time>2010-01-01T02:04:13Z</time>
      </trkpt>
      <trkpt lat="44.82406" lon="0.72689">
        <ele>96.652916</ele>
        <time>2010-01-01T02:04:25Z</time>
      </trkpt>
      <trkpt lat="44.82394" lon="0.72656">
        <ele>95.539749</ele>
        <time>2010-01-01T02:04:36Z</time>
      </trkpt>
      <trkpt lat="44.82428" lon="0.72577">
        <ele>94.509064</ele>
        <time>2010-01-01T02:05:02Z</time>
      </trkpt>
      <trkpt lat="44.82447" lon="0.72567">
        <ele>97.232498</ele>
        <time>2010-01-01T02:05:10Z</time>
      </trkpt>
      <trkpt lat="44.82448" lon="0.72542">
        <ele>100.607498</ele>
        <time>2010-01-01T02:05:17Z</time>
      </trkpt>
      <trkpt lat="44.82459" lon="0.7251">
        <ele>105.855003</ele>
        <time>2010-01-01T02:05:27Z</time>
      </trkpt>
      <trkpt lat="44.8248" lon="0.72473">
        <ele>113.070198</ele>
        <time>2010-01-01T02:05:41Z</time>
      </trkpt>
      <trkpt lat="44.82505" lon="0.72403">
        <ele>121.885628</ele>
        <time>2010-01-01T02:06:03Z</time>
      </trkpt>
      <trkpt lat="44.82531" lon="0.72358">
        <ele>127.596329</ele>
        <time>2010-01-01T02:06:20Z</time>
      </trkpt>
      <trkpt lat="44.82527" lon="0.72313">
        <ele>133.795731</ele>
        <time>2010-01-01T02:06:32Z</time>
      </trkpt>
      <trkpt lat="44.82511" lon="0.723">
        <ele>134.657318</ele>
        <time>2010-01-01T02:06:40Z</time>
      </trkpt>
      <trkpt lat="44.8252" lon="0.72292">
        <ele>135.210464</ele>
        <time>2010-01-01T02:06:44Z</time>
      </trkpt>
      <trkpt lat="44.82517" lon="0.72264">
        <ele>137.073227</ele>
        <time>2010-01-01T02:06:52Z</time>
      </trkpt>
      <trkpt lat="44.82549" lon="0.7211">
        <ele>141.669785</ele>
        <time>2010-01-01T02:07:38Z</time>
      </trkpt>
      <trkpt lat="44.82554" lon="0.71907">
        <ele>136.289993</ele>
        <time>2010-01-01T02:08:36Z</time>
      </trkpt>
      <trkpt lat="44.8253" lon="0.71767">
        <ele>125.412498</ele>
        <time>2010-01-01T02:09:16Z</time>
      </trkpt>
      <trkpt lat="44.82516" lon="0.71621">
        <ele>122.342087</ele>
        <time>2010-01-01T02:09:58Z</time>
      </trkpt>
      <trkpt lat="44.82495" lon="0.71558">
        <ele>125.003746</ele>
        <time>2010-01-01T02:10:18Z</time>
      </trkpt>
      <trkpt lat="44.82474" lon="0.71518">
        <ele>126.319817</ele>
        <time>2010-01-01T02:10:32Z</time>
      </trkpt>
      <trkpt lat="44.82498" lon="0.71375">
        <ele>118.041374</ele>
        <time>2010-01-01T02:11:14Z</time>
      </trkpt>
      <trkpt lat="44.82498" lon="0.7127">
        <ele>115.287369</ele>
        <time>2010-01-01T02:11:44Z</time>
      </trkpt>
      <trkpt lat="44.82489" lon="0.71256">
        <ele>116.296898</ele>
        <time>2010-01-01T02:11:49Z</time>
      </trkpt>
      <trkpt lat="44.82414" lon="0.71266">
        <ele>120.131447</ele>
        <time>2010-01-01T02:12:19Z</time>
      </trkpt>
      <trkpt lat="44.82399" lon="0.71244">
        <ele>117.20105</ele>
        <time>2010-01-01T02:12:28Z</time>
      </trkpt>
      <trkpt lat="44.8239" lon="0.71189">
        <ele>113.349602</ele>
        <time>2010-01-01T02:12:44Z</time>
      </trkpt>
      <trkpt lat="44.82366" lon="0.71177">
        <ele>109.315002</ele>
        <time>2010-01-01T02:12:54Z</time>
      </trkpt>
      <trkpt lat="44.82364" lon="0.71189">
        <ele>109.324768</ele>
        <time>2010-01-01T02:12:58Z</time>
      </trkpt>
      <trkpt lat="44.82351" lon="0.71205">
        <ele>107.434715</ele>
        <time>2010-01-01T02:13:04Z</time>
      </trkpt>
      <trkpt lat="44.82316" lon="0.71211">
        <ele>101.325562</ele>
        <time>2010-01-01T02:13:19Z</time>
      </trkpt>
      <trkpt lat="44.82288" lon="0.71202">
        <ele>95.856766</ele>
        <time>2010-01-01T02:13:30Z</time>
      </trkpt>
      <trkpt lat="44.82257" lon="0.71136">
        <ele>88.689377</ele>
        <time>2010-01-01T02:13:53Z</time>
      </trkpt>
      <trkpt lat="44.82248" lon="0.71086">
        <ele>83.787498</ele>
        <time>2010-01-01T02:14:07Z</time>
      </trkpt>
      <trkpt lat="44.8225" lon="0.71008">
        <ele>78.694122</ele>
        <time>2010-01-01T02:14:29Z</time>
      </trkpt>
      <trkpt lat="44.82214" lon="0.70794">
        <ele>63.866699</ele>
        <time>2010-01-01T02:15:32Z</time>
      </trkpt>
      <trkpt lat="44.8222" lon="0.70761">
        <ele>61.44545</ele>
        <time>2010-01-01T02:15:42Z</time>
      </trkpt>
      <trkpt lat="44.82264" lon="0.70691">
        <ele>57.183846</ele>
        <time>2010-01-01T02:16:08Z</time>
      </trkpt>
      <trkpt lat="44.82305" lon="0.70649">
        <ele>51.057301</ele>
        <time>2010-01-01T02:16:29Z</time>
      </trkpt>
      <trkpt lat="44.82303" lon="0.70631">
        <ele>48.634968</ele>
        <time>2010-01-01T02:16:34Z</time>
      </trkpt>
      <trkpt lat="44.82294" lon="0.70618">
        <ele>46.960983</ele>
        <time>2010-01-01T02:16:39Z</time>
      </trkpt>
      <trkpt lat="44.82298" lon="0.70638">
        <ele>49.549244</ele>
        <time>2010-01-01T02:16:44Z</time>
      </trkpt>
      <trkpt lat="44.82301" lon="0.70632">
        <ele>48.700352</ele>
        <time>2010-01-01T02:16:46Z</time>
      </trkpt>
      <trkpt lat="44.82282" lon="0.70539">
        <ele>43.1091</ele>
        <time>2010-01-01T02:17:14Z</time>
      </trkpt>
      <trkpt lat="44.82284" lon="0.70307">
        <ele>44.935001</ele>
        <time>2010-01-01T02:18:20Z</time>
      </trkpt>
      <trkpt lat="44.82277" lon="0.70273">
        <ele>48.46125</ele>
        <time>2010-01-01T02:18:30Z</time>
      </trkpt>
      <trkpt lat="44.82257" lon="0.70237">
        <ele>53.000156</ele>
        <time>2010-01-01T02:18:43Z</time>
      </trkpt>
      <trkpt lat="44.8219" lon="0.70181">
        <ele>62.21534</ele>
        <time>2010-01-01T02:19:14Z</time>
      </trkpt>
      <trkpt lat="44.82176" lon="0.70163">
        <ele>64.358543</ele>
        <time>2010-01-01T02:19:21Z</time>
      </trkpt>
      <trkpt lat="44.82166" lon="0.70138">
        <ele>66.246689</ele>
        <time>2010-01-01T02:19:29Z</time>
      </trkpt>
      <trkpt lat="44.82182" lon="0.70016">
        <ele>76.918816</ele>
        <time>2010-01-01T02:20:05Z</time>
      </trkpt>
      <trkpt lat="44.82164" lon="0.6987">
        <ele>85.85318</ele>
        <time>2010-01-01T02:20:47Z</time>
      </trkpt>
      <trkpt lat="44.82136" lon="0.69839">
        <ele>88.619545</ele>
        <time>2010-01-01T02:21:01Z</time>
      </trkpt>
      <trkpt lat="44.82063" lon="0.69796">
        <ele>96.221474</ele>
        <time>2010-01-01T02:21:33Z</time>
      </trkpt>
      <trkpt lat="44.81989" lon="0.69777">
        <ele>104.141304</ele>
        <time>2010-01-01T02:22:03Z</time>
      </trkpt>
      <trkpt lat="44.8197" lon="0.69757">
        <ele>107.674355</ele>
        <time>2010-01-01T02:22:12Z</time>
      </trkpt>
      <trkpt lat="44.81895" lon="0.69649">
        <ele>119.293724</ele>
        <time>2010-01-01T02:22:55Z</time>
      </trkpt>
      <trkpt lat="44.81839" lon="0.696">
        <ele>118.307144</ele>
        <time>2010-01-01T02:23:21Z</time>
      </trkpt>
      <trkpt lat="44.81757" lon="0.69544">
        <ele>112.724998</ele>
        <time>2010-01-01T02:23:58Z</time>
      </trkpt>
      <trkpt lat="44.81675" lon="0.69502">
        <ele>108.854523</ele>
        <time>2010-01-01T02:24:33Z</time>
      </trkpt>
      <trkpt lat="44.81644" lon="0.69502">
        <ele>109.174713</ele>
        <time>2010-01-01T02:24:45Z</time>
      </trkpt>
      <trkpt lat="44.81659" lon="0.69518">
        <ele>108.305199</ele>
        <time>2010-01-01T02:24:53Z</time>
      </trkpt>
      <trkpt lat="44.81495" lon="0.69882">
        <ele>84.27813</ele>
        <time>2010-01-01T02:26:56Z</time>
      </trkpt>
      <trkpt lat="44.81462" lon="0.69994">
        <ele>81.543747</ele>
        <time>2010-01-01T02:27:30Z</time>
      </trkpt>
      <trkpt lat="44.81424" lon="0.70092">
        <ele>81.16275</ele>
        <time>2010-01-01T02:28:02Z</time>
      </trkpt>
      <trkpt lat="44.81401" lon="0.70181">
        <ele>76.945412</ele>
        <time>2010-01-01T02:28:29Z</time>
      </trkpt>
      <trkpt lat="44.81413" lon="0.70228">
        <ele>75.075157</ele>
        <time>2010-01-01T02:28:43Z</time>
      </trkpt>
      <trkpt lat="44.81398" lon="0.70327">
        <ele>72.518127</ele>
        <time>2010-01-01T02:29:12Z</time>
      </trkpt>
      <trkpt lat="44.81418" lon="0.70407">
        <ele>72.521355</ele>
        <time>2010-01-01T02:29:36Z</time>
      </trkpt>
      <trkpt lat="44.81497" lon="0.70518">
        <ele>65.816635</ele>
        <time>2010-01-01T02:30:20Z</time>
      </trkpt>
      <trkpt lat="44.81528" lon="0.70601">
        <ele>65.939423</ele>
        <time>2010-01-01T02:30:47Z</time>
      </trkpt>
      <trkpt lat="44.81583" lon="0.70714">
        <ele>60.752499</ele>
        <time>2010-01-01T02:31:26Z</time>
      </trkpt>
      <trkpt lat="44.81618" lon="0.70759">
        <ele>58.32</ele>
        <time>2010-01-01T02:31:45Z</time>
      </trkpt>
      <trkpt lat="44.81605" lon="0.70802">
        <ele>57.9175</ele>
        <time>2010-01-01T02:31:58Z</time>
      </trkpt>
      <trkpt lat="44.81495" lon="0.71041">
        <ele>55.76675</ele>
        <time>2010-01-01T02:33:19Z</time>
      </trkpt>
      <trkpt lat="44.814" lon="0.71092">
        <ele>58.201607</ele>
        <time>2010-01-01T02:34:00Z</time>
      </trkpt>
      <trkpt lat="44.81275" lon="0.71131">
        <ele>54.905388</ele>
        <time>2010-01-01T02:34:51Z</time>
      </trkpt>
      <trkpt lat="44.81191" lon="0.71179">
        <ele>60.770721</ele>
        <time>2010-01-01T02:35:27Z</time>
      </trkpt>
      <trkpt lat="44.81109" lon="0.71209">
        <ele>66.440712</ele>
        <time>2010-01-01T02:36:01Z</time>
      </trkpt>
      <trkpt lat="44.8108" lon="0.7121">
        <ele>63.900738</ele>
        <time>2010-01-01T02:36:13Z</time>
      </trkpt>
      <trkpt lat="44.81091" lon="0.71217">
        <ele>64.578926</ele>
        <time>2010-01-01T02:36:17Z</time>
      </trkpt>
      <trkpt lat="44.81187" lon="0.71182">
        <ele>61.14201</ele>
        <time>2010-01-01T02:36:57Z</time>
      </trkpt>
      <trkpt lat="44.81244" lon="0.71145">
        <ele>55.903599</ele>
        <time>2010-01-01T02:37:22Z</time>
      </trkpt>
      <trkpt lat="44.81254" lon="0.71149">
        <ele>54.714149</ele>
        <time>2010-01-01T02:37:26Z</time>
      </trkpt>
      <trkpt lat="44.81205" lon="0.71254">
        <ele>51.838123</ele>
        <time>2010-01-01T02:38:02Z</time>
      </trkpt>
      <trkpt lat="44.81167" lon="0.71362">
        <ele>47.005627</ele>
        <time>2010-01-01T02:38:36Z</time>
      </trkpt>
      <trkpt lat="44.81135" lon="0.71349">
        <ele>49.94696</ele>
        <time>2010-01-01T02:38:50Z</time>
      </trkpt>
      <trkpt lat="44.81069" lon="0.71435">
        <ele>51.376438</ele>
        <time>2010-01-01T02:39:26Z</time>
      </trkpt>
      <trkpt lat="44.8104" lon="0.71459">
        <ele>53.791519</ele>
        <time>2010-01-01T02:39:39Z</time>
      </trkpt>
      <trkpt lat="44.81015" lon="0.71523">
        <ele>51.958424</ele>
        <time>2010-01-01T02:40:00Z</time>
      </trkpt>
      <trkpt lat="44.80936" lon="0.71562">
        <ele>59.448425</ele>
        <time>2010-01-01T02:40:33Z</time>
      </trkpt>
      <trkpt lat="44.80894" lon="0.71604">
        <ele>59.353203</ele>
        <time>2010-01-01T02:40:54Z</time>
      </trkpt>
      <trkpt lat="44.80783" lon="0.7169">
        <ele>58.837029</ele>
        <time>2010-01-01T02:41:45Z</time>
      </trkpt>
      <trkpt lat="44.80674" lon="0.71755">
        <ele>55.267647</ele>
        <time>2010-01-01T02:42:32Z</time>
      </trkpt>
      <trkpt lat="44.8063" lon="0.71807">
        <ele>52.799</ele>
        <time>2010-01-01T02:42:55Z</time>
      </trkpt>
      <trkpt lat="44.8051" lon="0.71803">
        <ele>61.817467</ele>
        <time>2010-01-01T02:43:43Z</time>
      </trkpt>
      <trkpt lat="44.80485" lon="0.7181">
        <ele>62.511967</ele>
        <time>2010-01-01T02:43:53Z</time>
      </trkpt>
      <trkpt lat="44.80431" lon="0.71857">
        <ele>61.294209</ele>
        <time>2010-01-01T02:44:19Z</time>
      </trkpt>
      <trkpt lat="44.80408" lon="0.71885">
        <ele>60.611343</ele>
        <time>2010-01-01T02:44:31Z</time>
      </trkpt>
      <trkpt lat="44.80356" lon="0.71924">
        <ele>60.673801</ele>
        <time>2010-01-01T02:44:54Z</time>
      </trkpt>
      <trkpt lat="44.80396" lon="0.72008">
        <ele>56.003124</ele>
        <time>2010-01-01T02:45:23Z</time>
      </trkpt>
      <trkpt lat="44.80429" lon="0.72133">
        <ele>52.911633</ele>
        <time>2010-01-01T02:46:01Z</time>
      </trkpt>
      <trkpt lat="44.80395" lon="0.724">
        <ele>61.430405</ele>
        <time>2010-01-01T02:47:18Z</time>
      </trkpt>
      <trkpt lat="44.80409" lon="0.72483">
        <ele>60.053555</ele>
        <time>2010-01-01T02:47:42Z</time>
      </trkpt>
      <trkpt lat="44.80423" lon="0.72653">
        <ele>57.352501</ele>
        <time>2010-01-01T02:48:31Z</time>
      </trkpt>
      <trkpt lat="44.80419" lon="0.72669">
        <ele>58.181252</ele>
        <time>2010-01-01T02:48:36Z</time>
      </trkpt>
      <trkpt lat="44.80358" lon="0.72646">
        <ele>66.472504</ele>
        <time>2010-01-01T02:49:01Z</time>
      </trkpt>
      <trkpt lat="44.80357" lon="0.72702">
        <ele>70.387604</ele>
        <time>2010-01-01T02:49:17Z</time>
      </trkpt>
      <trkpt lat="44.80372" lon="0.72736">
        <ele>71.26725</ele>
        <time>2010-01-01T02:49:29Z</time>
      </trkpt>
      <trkpt lat="44.80392" lon="0.72764">
        <ele>71.468338</ele>
        <time>2010-01-01T02:49:40Z</time>
      </trkpt>
      <trkpt lat="44.80384" lon="0.72759">
        <ele>71.955032</ele>
        <time>2010-01-01T02:49:44Z</time>
      </trkpt>
      <trkpt lat="44.80345" lon="0.72694">
        <ele>71.35656</ele>
        <time>2010-01-01T02:50:08Z</time>
      </trkpt>
      <trkpt lat="44.80334" lon="0.72684">
        <ele>72.184998</ele>
        <time>2010-01-01T02:50:13Z</time>
      </trkpt>
      <trkpt lat="44.80316" lon="0.72697">
        <ele>75.151474</ele>
        <time>2010-01-01T02:50:21Z</time>
      </trkpt>
      <trkpt lat="44.80343" lon="0.72674">
        <ele>70.339996</ele>
        <time>2010-01-01T02:50:34Z</time>
      </trkpt>
      <trkpt lat="44.80352" lon="0.72671">
        <ele>68.967499</ele>
        <time>2010-01-01T02:50:37Z</time>
      </trkpt>
      <trkpt lat="44.80351" lon="0.72678">
        <ele>69.415001</ele>
        <time>2010-01-01T02:50:39Z</time>
      </trkpt>
      <trkpt lat="44.80355" lon="0.72655">
        <ele>67.459999</ele>
        <time>2010-01-01T02:50:46Z</time>
      </trkpt>
      <trkpt lat="44.8037" lon="0.7265">
        <ele>64.811653</ele>
        <time>2010-01-01T02:50:52Z</time>
      </trkpt>
      <trkpt lat="44.80425" lon="0.7267">
        <ele>57.682499</ele>
        <time>2010-01-01T02:51:15Z</time>
      </trkpt>
      <trkpt lat="44.80462" lon="0.72707">
        <ele>56.013561</ele>
        <time>2010-01-01T02:51:33Z</time>
      </trkpt>
      <trkpt lat="44.80468" lon="0.72807">
        <ele>56.895382</ele>
        <time>2010-01-01T02:52:01Z</time>
      </trkpt>
      <trkpt lat="44.8046" lon="0.72853">
        <ele>55.707325</ele>
        <time>2010-01-01T02:52:15Z</time>
      </trkpt>
      <trkpt lat="44.8039" lon="0.73006">
        <ele>59.85043</ele>
        <time>2010-01-01T02:53:06Z</time>
      </trkpt>
      <trkpt lat="44.80249" lon="0.73175">
        <ele>62.923752</ele>
        <time>2010-01-01T02:54:20Z</time>
      </trkpt>
      <trkpt lat="44.80218" lon="0.73224">
        <ele>60.121094</ele>
        <time>2010-01-01T02:54:39Z</time>
      </trkpt>
      <trkpt lat="44.80188" lon="0.73294">
        <ele>56.494617</ele>
        <time>2010-01-01T02:55:02Z</time>
      </trkpt>
      <trkpt lat="44.8018" lon="0.73298">
        <ele>57.345375</ele>
        <time>2010-01-01T02:55:06Z</time>
      </trkpt>
      <trkpt lat="44.80192" lon="0.73273">
        <ele>58.064453</ele>
        <time>2010-01-01T02:55:14Z</time>
      </trkpt>
      <trkpt lat="44.80078" lon="0.73377">
        <ele>65.204742</ele>
        <time>2010-01-01T02:56:08Z</time>
      </trkpt>
      <trkpt lat="44.80019" lon="0.73392">
        <ele>74.637466</ele>
        <time>2010-01-01T02:56:32Z</time>
      </trkpt>
      <trkpt lat="44.80005" lon="0.73422">
        <ele>69.817482</ele>
        <time>2010-01-01T02:56:43Z</time>
      </trkpt>
      <trkpt lat="44.79981" lon="0.73448">
        <ele>67.981812</ele>
        <time>2010-01-01T02:56:55Z</time>
      </trkpt>
      <trkpt lat="44.79919" lon="0.73482">
        <ele>65.616905</ele>
        <time>2010-01-01T02:57:21Z</time>
      </trkpt>
      <trkpt lat="44.79876" lon="0.73476">
        <ele>64.360374</ele>
        <time>2010-01-01T02:57:39Z</time>
      </trkpt>
      <trkpt lat="44.79858" lon="0.73452">
        <ele>65.338707</ele>
        <time>2010-01-01T02:57:49Z</time>
      </trkpt>
      <trkpt lat="44.79878" lon="0.73479">
        <ele>63.98275</ele>
        <time>2010-01-01T02:58:00Z</time>
      </trkpt>
      <trkpt lat="44.7987" lon="0.73484">
        <ele>61.987499</ele>
        <time>2010-01-01T02:58:03Z</time>
      </trkpt>
      <trkpt lat="44.79857" lon="0.73507">
        <ele>57.377968</ele>
        <time>2010-01-01T02:58:12Z</time>
      </trkpt>
      <trkpt lat="44.79857" lon="0.73504">
        <ele>57.709</ele>
        <time>2010-01-01T02:58:13Z</time>
      </trkpt>
      <trkpt lat="44.79806" lon="0.73563">
        <ele>56.636364</ele>
        <time>2010-01-01T02:58:39Z</time>
      </trkpt>
      <trkpt lat="44.79692" lon="0.73705">
        <ele>57.483486</ele>
        <time>2010-01-01T02:59:40Z</time>
      </trkpt>
      <trkpt lat="44.79594" lon="0.73818">
        <ele>57.444012</ele>
        <time>2010-01-01T03:00:31Z</time>
      </trkpt>
      <trkpt lat="44.79548" lon="0.73886">
        <ele>62.37365</ele>
        <time>2010-01-01T03:00:57Z</time>
      </trkpt>
      <trkpt lat="44.79502" lon="0.74156">
        <ele>76.604973</ele>
        <time>2010-01-01T03:02:16Z</time>
      </trkpt>
      <trkpt lat="44.79495" lon="0.74279">
        <ele>82.125954</ele>
        <time>2010-01-01T03:02:51Z</time>
      </trkpt>
      <trkpt lat="44.79411" lon="0.74401">
        <ele>99.215454</ele>
        <time>2010-01-01T03:03:39Z</time>
      </trkpt>
      <trkpt lat="44.79368" lon="0.74488">
        <ele>105.721054</ele>
        <time>2010-01-01T03:04:10Z</time>
      </trkpt>
      <trkpt lat="44.79342" lon="0.74577">
        <ele>102.712654</ele>
        <time>2010-01-01T03:04:37Z</time>
      </trkpt>
      <trkpt lat="44.79342" lon="0.7459">
        <ele>101.488647</ele>
        <time>2010-01-01T03:04:41Z</time>
      </trkpt>
      <trkpt lat="44.79388" lon="0.74636">
        <ele>96.744347</ele>
        <time>2010-01-01T03:05:03Z</time>
      </trkpt>
      <trkpt lat="44.79417" lon="0.74648">
        <ele>94.010147</ele>
        <time>2010-01-01T03:05:15Z</time>
      </trkpt>
      <trkpt lat="44.7947" lon="0.74703">
        <ele>87.6446</ele>
        <time>2010-01-01T03:05:42Z</time>
      </trkpt>
      <trkpt lat="44.79417" lon="0.74641">
        <ele>95.062149</ele>
        <time>2010-01-01T03:06:09Z</time>
      </trkpt>
      <trkpt lat="44.79383" lon="0.74633">
        <ele>97.230972</ele>
        <time>2010-01-01T03:06:23Z</time>
      </trkpt>
      <trkpt lat="44.79342" lon="0.74587">
        <ele>101.794647</ele>
        <time>2010-01-01T03:06:44Z</time>
      </trkpt>
      <trkpt lat="44.79365" lon="0.74488">
        <ele>105.924988</ele>
        <time>2010-01-01T03:07:13Z</time>
      </trkpt>
      <trkpt lat="44.79414" lon="0.74392">
        <ele>98.916824</ele>
        <time>2010-01-01T03:07:47Z</time>
      </trkpt>
      <trkpt lat="44.795" lon="0.74276">
        <ele>80.938698</ele>
        <time>2010-01-01T03:08:34Z</time>
      </trkpt>
      <trkpt lat="44.79505" lon="0.74149">
        <ele>75.796661</ele>
        <time>2010-01-01T03:09:10Z</time>
      </trkpt>
      <trkpt lat="44.79548" lon="0.73883">
        <ele>62.639648</ele>
        <time>2010-01-01T03:10:28Z</time>
      </trkpt>
      <trkpt lat="44.79696" lon="0.73676">
        <ele>60.584862</ele>
        <time>2010-01-01T03:11:51Z</time>
      </trkpt>
      <trkpt lat="44.79802" lon="0.73537">
        <ele>58.255238</ele>
        <time>2010-01-01T03:12:49Z</time>
      </trkpt>
      <trkpt lat="44.79844" lon="0.73505">
        <ele>56.58025</ele>
        <time>2010-01-01T03:13:09Z</time>
      </trkpt>
      <trkpt lat="44.79792" lon="0.73436">
        <ele>59.277031</ele>
        <time>2010-01-01T03:13:37Z</time>
      </trkpt>
      <trkpt lat="44.79717" lon="0.73311">
        <ele>63.111267</ele>
        <time>2010-01-01T03:14:24Z</time>
      </trkpt>
      <trkpt lat="44.79628" lon="0.73206">
        <ele>67.543373</ele>
        <time>2010-01-01T03:15:10Z</time>
      </trkpt>
      <trkpt lat="44.79598" lon="0.73153">
        <ele>67.136993</ele>
        <time>2010-01-01T03:15:29Z</time>
      </trkpt>
      <trkpt lat="44.79586" lon="0.73095">
        <ele>70.792816</ele>
        <time>2010-01-01T03:15:46Z</time>
      </trkpt>
      <trkpt lat="44.79577" lon="0.72967">
        <ele>74.294472</ele>
        <time>2010-01-01T03:16:23Z</time>
      </trkpt>
      <trkpt lat="44.79524" lon="0.72786">
        <ele>74.751816</ele>
        <time>2010-01-01T03:17:18Z</time>
      </trkpt>
      <trkpt lat="44.79512" lon="0.72703">
        <ele>78.009964</ele>
        <time>2010-01-01T03:17:43Z</time>
      </trkpt>
      <trkpt lat="44.79512" lon="0.72635">
        <ele>82.636536</ele>
        <time>2010-01-01T03:18:02Z</time>
      </trkpt>
      <trkpt lat="44.795" lon="0.72607">
        <ele>79.069824</ele>
        <time>2010-01-01T03:18:11Z</time>
      </trkpt>
      <trkpt lat="44.79502" lon="0.72581">
        <ele>78.622658</ele>
        <time>2010-01-01T03:18:19Z</time>
      </trkpt>
      <trkpt lat="44.7953" lon="0.72505">
        <ele>85.778954</ele>
        <time>2010-01-01T03:18:43Z</time>
      </trkpt>
      <trkpt lat="44.79529" lon="0.72463">
        <ele>87.326347</ele>
        <time>2010-01-01T03:18:55Z</time>
      </trkpt>
      <trkpt lat="44.79512" lon="0.72394">
        <ele>90.006874</ele>
        <time>2010-01-01T03:19:16Z</time>
      </trkpt>
      <trkpt lat="44.79474" lon="0.72297">
        <ele>90.240585</ele>
        <time>2010-01-01T03:19:47Z</time>
      </trkpt>
      <trkpt lat="44.79445" lon="0.72303">
        <ele>85.898369</ele>
        <time>2010-01-01T03:19:59Z</time>
      </trkpt>
      <trkpt lat="44.79408" lon="0.72295">
        <ele>89.266251</ele>
        <time>2010-01-01T03:20:14Z</time>
      </trkpt>
      <trkpt lat="44.79335" lon="0.72262">
        <ele>93.587112</ele>
        <time>2010-01-01T03:20:45Z</time>
      </trkpt>
      <trkpt lat="44.79253" lon="0.72213">
        <ele>94.434372</ele>
        <time>2010-01-01T03:21:20Z</time>
      </trkpt>
      <trkpt lat="44.79241" lon="0.72201">
        <ele>95.900627</ele>
        <time>2010-01-01T03:21:26Z</time>
      </trkpt>
      <trkpt lat="44.79179" lon="0.72171">
        <ele>98.838562</ele>
        <time>2010-01-01T03:21:52Z</time>
      </trkpt>
      <trkpt lat="44.7914" lon="0.72162">
        <ele>99.153267</ele>
        <time>2010-01-01T03:22:08Z</time>
      </trkpt>
      <trkpt lat="44.7906" lon="0.7212">
        <ele>103.103249</ele>
        <time>2010-01-01T03:22:42Z</time>
      </trkpt>
      <trkpt lat="44.7906" lon="0.72112">
        <ele>103.501175</ele>
        <time>2010-01-01T03:22:45Z</time>
      </trkpt>
      <trkpt lat="44.79066" lon="0.72113">
        <ele>103.809082</ele>
        <time>2010-01-01T03:22:47Z</time>
      </trkpt>
      <trkpt lat="44.79058" lon="0.72117">
        <ele>103.145569</ele>
        <time>2010-01-01T03:22:50Z</time>
      </trkpt>
      <trkpt lat="44.79028" lon="0.72104">
        <ele>102.365891</ele>
        <time>2010-01-01T03:23:03Z</time>
      </trkpt>
      <trkpt lat="44.79004" lon="0.72112">
        <ele>102.710999</ele>
        <time>2010-01-01T03:23:12Z</time>
      </trkpt>
      <trkpt lat="44.78959" lon="0.72086">
        <ele>106.6633</ele>
        <time>2010-01-01T03:23:32Z</time>
      </trkpt>
      <trkpt lat="44.78905" lon="0.72085">
        <ele>111.059853</ele>
        <time>2010-01-01T03:23:54Z</time>
      </trkpt>
      <trkpt lat="44.78861" lon="0.72076">
        <ele>113.094078</ele>
        <time>2010-01-01T03:24:11Z</time>
      </trkpt>
      <trkpt lat="44.78844" lon="0.72056">
        <ele>112.23996</ele>
        <time>2010-01-01T03:24:20Z</time>
      </trkpt>
      <trkpt lat="44.7874" lon="0.71995">
        <ele>115.09375</ele>
        <time>2010-01-01T03:25:05Z</time>
      </trkpt>
      <trkpt lat="44.78673" lon="0.71975">
        <ele>116.116684</ele>
        <time>2010-01-01T03:25:33Z</time>
      </trkpt>
      <trkpt lat="44.7863" lon="0.71943">
        <ele>117.313034</ele>
        <time>2010-01-01T03:25:52Z</time>
      </trkpt>
      <trkpt lat="44.78589" lon="0.71929">
        <ele>118.955902</ele>
        <time>2010-01-01T03:26:09Z</time>
      </trkpt>
      <trkpt lat="44.78495" lon="0.71872">
        <ele>127.307602</ele>
        <time>2010-01-01T03:26:50Z</time>
      </trkpt>
      <trkpt lat="44.78411" lon="0.71858">
        <ele>138.298462</ele>
        <time>2010-01-01T03:27:24Z</time>
      </trkpt>
      <trkpt lat="44.78386" lon="0.71843">
        <ele>139.513748</ele>
        <time>2010-01-01T03:27:35Z</time>
      </trkpt>
      <trkpt lat="44.78357" lon="0.71837">
        <ele>140.372864</ele>
        <time>2010-01-01T03:27:47Z</time>
      </trkpt>
      <trkpt lat="44.78329" lon="0.71843">
        <ele>140.222809</ele>
        <time>2010-01-01T03:27:58Z</time>
      </trkpt>
      <trkpt lat="44.78241" lon="0.71824">
        <ele>141.250076</ele>
        <time>2010-01-01T03:28:33Z</time>
      </trkpt>
      <trkpt lat="44.78234" lon="0.71793">
        <ele>143.62561</ele>
        <time>2010-01-01T03:28:43Z</time>
      </trkpt>
      <trkpt lat="44.78193" lon="0.71729">
        <ele>145.957336</ele>
        <time>2010-01-01T03:29:07Z</time>
      </trkpt>
      <trkpt lat="44.78178" lon="0.71717">
        <ele>146.103806</ele>
        <time>2010-01-01T03:29:14Z</time>
      </trkpt>
      <trkpt lat="44.78152" lon="0.71722">
        <ele>146.304321</ele>
        <time>2010-01-01T03:29:25Z</time>
      </trkpt>
      <trkpt lat="44.78141" lon="0.71717">
        <ele>146.450623</ele>
        <time>2010-01-01T03:29:29Z</time>
      </trkpt>
      <trkpt lat="44.78141" lon="0.71695">
        <ele>146.802505</ele>
        <time>2010-01-01T03:29:35Z</time>
      </trkpt>
      <trkpt lat="44.78159" lon="0.71646">
        <ele>144.903656</ele>
        <time>2010-01-01T03:29:51Z</time>
      </trkpt>
      <trkpt lat="44.78183" lon="0.7151">
        <ele>145.220963</ele>
        <time>2010-01-01T03:30:31Z</time>
      </trkpt>
      <trkpt lat="44.78214" lon="0.71412">
        <ele>153.327499</ele>
        <time>2010-01-01T03:31:01Z</time>
      </trkpt>
      <trkpt lat="44.78232" lon="0.7131">
        <ele>157.858124</ele>
        <time>2010-01-01T03:31:31Z</time>
      </trkpt>
      <trkpt lat="44.78228" lon="0.71268">
        <ele>158</ele>
        <time>2010-01-01T03:31:43Z</time>
      </trkpt>
      <trkpt lat="44.78192" lon="0.71115">
        <ele>154.564377</ele>
        <time>2010-01-01T03:32:29Z</time>
      </trkpt>
      <trkpt lat="44.78164" lon="0.71126">
        <ele>153.914551</ele>
        <time>2010-01-01T03:32:41Z</time>
      </trkpt>
      <trkpt lat="44.78094" lon="0.71174">
        <ele>155.841705</ele>
        <time>2010-01-01T03:33:12Z</time>
      </trkpt>
      <trkpt lat="44.77961" lon="0.7121">
        <ele>163.760269</ele>
        <time>2010-01-01T03:34:06Z</time>
      </trkpt>
      <trkpt lat="44.77942" lon="0.71137">
        <ele>165.787201</ele>
        <time>2010-01-01T03:34:28Z</time>
      </trkpt>
      <trkpt lat="44.77835" lon="0.7094">
        <ele>155.261002</ele>
        <time>2010-01-01T03:35:38Z</time>
      </trkpt>
      <trkpt lat="44.77831" lon="0.70888">
        <ele>153.315094</ele>
        <time>2010-01-01T03:35:53Z</time>
      </trkpt>
      <trkpt lat="44.77843" lon="0.70881">
        <ele>152.869293</ele>
        <time>2010-01-01T03:35:58Z</time>
      </trkpt>
      <trkpt lat="44.77846" lon="0.70858">
        <ele>151.457016</ele>
        <time>2010-01-01T03:36:05Z</time>
      </trkpt>
      <trkpt lat="44.77788" lon="0.70715">
        <ele>144.943237</ele>
        <time>2010-01-01T03:36:52Z</time>
      </trkpt>
      <trkpt lat="44.7776" lon="0.70707">
        <ele>144.786865</ele>
        <time>2010-01-01T03:37:03Z</time>
      </trkpt>
      <trkpt lat="44.77737" lon="0.70718">
        <ele>145.30722</ele>
        <time>2010-01-01T03:37:13Z</time>
      </trkpt>
      <trkpt lat="44.77699" lon="0.70701">
        <ele>144.147858</ele>
        <time>2010-01-01T03:37:29Z</time>
      </trkpt>
      <trkpt lat="44.77683" lon="0.7057">
        <ele>137.415833</ele>
        <time>2010-01-01T03:38:07Z</time>
      </trkpt>
      <trkpt lat="44.77687" lon="0.70464">
        <ele>128.453751</ele>
        <time>2010-01-01T03:38:37Z</time>
      </trkpt>
      <trkpt lat="44.77665" lon="0.70411">
        <ele>124.938202</ele>
        <time>2010-01-01T03:38:54Z</time>
      </trkpt>
      <trkpt lat="44.7757" lon="0.70305">
        <ele>113.271721</ele>
        <time>2010-01-01T03:39:43Z</time>
      </trkpt>
      <trkpt lat="44.77572" lon="0.70268">
        <ele>110.07814</ele>
        <time>2010-01-01T03:39:53Z</time>
      </trkpt>
      <trkpt lat="44.77576" lon="0.70279">
        <ele>111.088982</ele>
        <time>2010-01-01T03:39:57Z</time>
      </trkpt>
      <trkpt lat="44.77568" lon="0.703">
        <ele>112.840317</ele>
        <time>2010-01-01T03:40:04Z</time>
      </trkpt>
      <trkpt lat="44.77667" lon="0.70409">
        <ele>124.0952</ele>
        <time>2010-01-01T03:40:54Z</time>
      </trkpt>
      <trkpt lat="44.77681" lon="0.70405">
        <ele>121.68663</ele>
        <time>2010-01-01T03:41:00Z</time>
      </trkpt>
      <trkpt lat="44.77706" lon="0.70391">
        <ele>117.16378</ele>
        <time>2010-01-01T03:41:11Z</time>
      </trkpt>
      <trkpt lat="44.77722" lon="0.70349">
        <ele>115.191177</ele>
        <time>2010-01-01T03:41:24Z</time>
      </trkpt>
      <trkpt lat="44.77721" lon="0.70322">
        <ele>116.034225</ele>
        <time>2010-01-01T03:41:32Z</time>
      </trkpt>
      <trkpt lat="44.77741" lon="0.70273">
        <ele>123.000122</ele>
        <time>2010-01-01T03:41:48Z</time>
      </trkpt>
      <trkpt lat="44.77783" lon="0.70209">
        <ele>129.369385</ele>
        <time>2010-01-01T03:42:12Z</time>
      </trkpt>
      <trkpt lat="44.77823" lon="0.70162">
        <ele>131.095062</ele>
        <time>2010-01-01T03:42:34Z</time>
      </trkpt>
      <trkpt lat="44.77871" lon="0.70168">
        <ele>133.288849</ele>
        <time>2010-01-01T03:42:53Z</time>
      </trkpt>
      <trkpt lat="44.77912" lon="0.70198">
        <ele>138.367508</ele>
        <time>2010-01-01T03:43:11Z</time>
      </trkpt>
      <trkpt lat="44.77931" lon="0.70186">
        <ele>138.558746</ele>
        <time>2010-01-01T03:43:19Z</time>
      </trkpt>
      <trkpt lat="44.77946" lon="0.7009">
        <ele>128.636765</ele>
        <time>2010-01-01T03:43:47Z</time>
      </trkpt>
      <trkpt lat="44.77958" lon="0.69757">
        <ele>121.915703</ele>
        <time>2010-01-01T03:45:22Z</time>
      </trkpt>
      <trkpt lat="44.77953" lon="0.69726">
        <ele>121.351753</ele>
        <time>2010-01-01T03:45:31Z</time>
      </trkpt>
      <trkpt lat="44.77901" lon="0.69698">
        <ele>114.092499</ele>
        <time>2010-01-01T03:45:53Z</time>
      </trkpt>
      <trkpt lat="44.77879" lon="0.69675">
        <ele>110.228729</ele>
        <time>2010-01-01T03:46:04Z</time>
      </trkpt>
      <trkpt lat="44.77855" lon="0.69664">
        <ele>105.275711</ele>
        <time>2010-01-01T03:46:14Z</time>
      </trkpt>
      <trkpt lat="44.77806" lon="0.69662">
        <ele>97.646706</ele>
        <time>2010-01-01T03:46:34Z</time>
      </trkpt>
      <trkpt lat="44.77746" lon="0.69637">
        <ele>95.515434</ele>
        <time>2010-01-01T03:46:59Z</time>
      </trkpt>
      <trkpt lat="44.7767" lon="0.69586">
        <ele>98.019997</ele>
        <time>2010-01-01T03:47:33Z</time>
      </trkpt>
      <trkpt lat="44.77609" lon="0.69517">
        <ele>99.071503</ele>
        <time>2010-01-01T03:48:04Z</time>
      </trkpt>
      <trkpt lat="44.77543" lon="0.69582">
        <ele>109.223747</ele>
        <time>2010-01-01T03:48:36Z</time>
      </trkpt>
      <trkpt lat="44.77514" lon="0.69497">
        <ele>111.98999</ele>
        <time>2010-01-01T03:49:03Z</time>
      </trkpt>
      <trkpt lat="44.77499" lon="0.69472">
        <ele>112.257202</ele>
        <time>2010-01-01T03:49:12Z</time>
      </trkpt>
      <trkpt lat="44.77403" lon="0.69534">
        <ele>130.357193</ele>
        <time>2010-01-01T03:49:55Z</time>
      </trkpt>
      <trkpt lat="44.77389" lon="0.69552">
        <ele>133.565933</ele>
        <time>2010-01-01T03:50:02Z</time>
      </trkpt>
      <trkpt lat="44.77392" lon="0.69573">
        <ele>134.985001</ele>
        <time>2010-01-01T03:50:08Z</time>
      </trkpt>
      <trkpt lat="44.77384" lon="0.6961">
        <ele>137.767502</ele>
        <time>2010-01-01T03:50:20Z</time>
      </trkpt>
      <trkpt lat="44.77396" lon="0.69661">
        <ele>138.315125</ele>
        <time>2010-01-01T03:50:35Z</time>
      </trkpt>
      <trkpt lat="44.77398" lon="0.69723">
        <ele>138.404999</ele>
        <time>2010-01-01T03:50:52Z</time>
      </trkpt>
      <trkpt lat="44.77318" lon="0.69899">
        <ele>144.213715</ele>
        <time>2010-01-01T03:51:52Z</time>
      </trkpt>
      <trkpt lat="44.77226" lon="0.70194">
        <ele>146.010117</ele>
        <time>2010-01-01T03:53:23Z</time>
      </trkpt>
      <trkpt lat="44.77199" lon="0.7025">
        <ele>146.886871</ele>
        <time>2010-01-01T03:53:43Z</time>
      </trkpt>
      <trkpt lat="44.77173" lon="0.70285">
        <ele>146.941696</ele>
        <time>2010-01-01T03:53:57Z</time>
      </trkpt>
      <trkpt lat="44.77128" lon="0.70382">
        <ele>146.991028</ele>
        <time>2010-01-01T03:54:30Z</time>
      </trkpt>
      <trkpt lat="44.77115" lon="0.7045">
        <ele>147.445007</ele>
        <time>2010-01-01T03:54:50Z</time>
      </trkpt>
      <trkpt lat="44.77117" lon="0.70526">
        <ele>147.211868</ele>
        <time>2010-01-01T03:55:12Z</time>
      </trkpt>
      <trkpt lat="44.77104" lon="0.70619">
        <ele>146.238739</ele>
        <time>2010-01-01T03:55:38Z</time>
      </trkpt>
      <trkpt lat="44.77102" lon="0.70857">
        <ele>151.389603</ele>
        <time>2010-01-01T03:56:46Z</time>
      </trkpt>
      <trkpt lat="44.77041" lon="0.70986">
        <ele>151.257507</ele>
        <time>2010-01-01T03:57:30Z</time>
      </trkpt>
      <trkpt lat="44.76966" lon="0.71067">
        <ele>146.924225</ele>
        <time>2010-01-01T03:58:08Z</time>
      </trkpt>
      <trkpt lat="44.76929" lon="0.71079">
        <ele>145.461197</ele>
        <time>2010-01-01T03:58:23Z</time>
      </trkpt>
      <trkpt lat="44.76861" lon="0.71031">
        <ele>144.058105</ele>
        <time>2010-01-01T03:58:54Z</time>
      </trkpt>
      <trkpt lat="44.76819" lon="0.71038">
        <ele>141.452026</ele>
        <time>2010-01-01T03:59:11Z</time>
      </trkpt>
      <trkpt lat="44.76789" lon="0.71063">
        <ele>139.159515</ele>
        <time>2010-01-01T03:59:24Z</time>
      </trkpt>
      <trkpt lat="44.76678" lon="0.71103">
        <ele>131.343689</ele>
        <time>2010-01-01T04:00:10Z</time>
      </trkpt>
      <trkpt lat="44.76592" lon="0.71165">
        <ele>137.248596</ele>
        <time>2010-01-01T04:00:49Z</time>
      </trkpt>
      <trkpt lat="44.76567" lon="0.71176">
        <ele>139.287888</ele>
        <time>2010-01-01T04:00:59Z</time>
      </trkpt>
      <trkpt lat="44.76543" lon="0.71197">
        <ele>140.311981</ele>
        <time>2010-01-01T04:01:11Z</time>
      </trkpt>
      <trkpt lat="44.76573" lon="0.71423">
        <ele>140.666245</ele>
        <time>2010-01-01T04:02:16Z</time>
      </trkpt>
      <trkpt lat="44.76336" lon="0.71754">
        <ele>145.858673</ele>
        <time>2010-01-01T04:04:30Z</time>
      </trkpt>
      <trkpt lat="44.76301" lon="0.71767">
        <ele>145.502518</ele>
        <time>2010-01-01T04:04:44Z</time>
      </trkpt>
      <trkpt lat="44.76267" lon="0.71731">
        <ele>144.241425</ele>
        <time>2010-01-01T04:05:01Z</time>
      </trkpt>
      <trkpt lat="44.76217" lon="0.71691">
        <ele>142.549057</ele>
        <time>2010-01-01T04:05:24Z</time>
      </trkpt>
      <trkpt lat="44.76175" lon="0.7171">
        <ele>141.779999</ele>
        <time>2010-01-01T04:05:42Z</time>
      </trkpt>
      <trkpt lat="44.76071" lon="0.71777">
        <ele>139.952164</ele>
        <time>2010-01-01T04:06:28Z</time>
      </trkpt>
      <trkpt lat="44.76029" lon="0.71826">
        <ele>140.291763</ele>
        <time>2010-01-01T04:06:50Z</time>
      </trkpt>
      <trkpt lat="44.75846" lon="0.72089">
        <ele>144.195007</ele>
        <time>2010-01-01T04:08:34Z</time>
      </trkpt>
      <trkpt lat="44.75824" lon="0.72082">
        <ele>144.697495</ele>
        <time>2010-01-01T04:08:43Z</time>
      </trkpt>
      <trkpt lat="44.75763" lon="0.72316">
        <ele>147</ele>
        <time>2010-01-01T04:09:54Z</time>
      </trkpt>
      <trkpt lat="44.75738" lon="0.72453">
        <ele>148</ele>
        <time>2010-01-01T04:10:34Z</time>
      </trkpt>
      <trkpt lat="44.75744" lon="0.72487">
        <ele>148</ele>
        <time>2010-01-01T04:10:44Z</time>
      </trkpt>
      <trkpt lat="44.75814" lon="0.72645">
        <ele>144.76152</ele>
        <time>2010-01-01T04:11:37Z</time>
      </trkpt>
      <trkpt lat="44.75835" lon="0.72707">
        <ele>141.839127</ele>
        <time>2010-01-01T04:11:57Z</time>
      </trkpt>
      <trkpt lat="44.7575" lon="0.72952">
        <ele>126.345955</ele>
        <time>2010-01-01T04:13:14Z</time>
      </trkpt>
      <trkpt lat="44.75717" lon="0.73011">
        <ele>120.148438</ele>
        <time>2010-01-01T04:13:36Z</time>
      </trkpt>
      <trkpt lat="44.75725" lon="0.73043">
        <ele>118.97496</ele>
        <time>2010-01-01T04:13:45Z</time>
      </trkpt>
      <trkpt lat="44.75752" lon="0.73072">
        <ele>118.746017</ele>
        <time>2010-01-01T04:13:59Z</time>
      </trkpt>
      <trkpt lat="44.75826" lon="0.73134">
        <ele>116.150536</ele>
        <time>2010-01-01T04:14:33Z</time>
      </trkpt>
      <trkpt lat="44.75967" lon="0.7321">
        <ele>114.558578</ele>
        <time>2010-01-01T04:15:34Z</time>
      </trkpt>
      <trkpt lat="44.76068" lon="0.73292">
        <ele>111.746353</ele>
        <time>2010-01-01T04:16:20Z</time>
      </trkpt>
      <trkpt lat="44.76114" lon="0.73365">
        <ele>110.033752</ele>
        <time>2010-01-01T04:16:48Z</time>
      </trkpt>
      <trkpt lat="44.762" lon="0.73472">
        <ele>106.783974</ele>
        <time>2010-01-01T04:17:34Z</time>
      </trkpt>
      <trkpt lat="44.76228" lon="0.73521">
        <ele>105.417122</ele>
        <time>2010-01-01T04:17:52Z</time>
      </trkpt>
      <trkpt lat="44.76228" lon="0.73558">
        <ele>100.598717</ele>
        <time>2010-01-01T04:18:02Z</time>
      </trkpt>
      <trkpt lat="44.76213" lon="0.73604">
        <ele>99.861496</ele>
        <time>2010-01-01T04:18:17Z</time>
      </trkpt>
      <trkpt lat="44.76209" lon="0.73672">
        <ele>101.994972</ele>
        <time>2010-01-01T04:18:36Z</time>
      </trkpt>
      <trkpt lat="44.76226" lon="0.73732">
        <ele>101.688225</ele>
        <time>2010-01-01T04:18:54Z</time>
      </trkpt>
      <trkpt lat="44.76332" lon="0.73962">
        <ele>106.323128</ele>
        <time>2010-01-01T04:20:12Z</time>
      </trkpt>
      <trkpt lat="44.76403" lon="0.7404">
        <ele>108.474937</ele>
        <time>2010-01-01T04:20:48Z</time>
      </trkpt>
      <trkpt lat="44.76442" lon="0.74093">
        <ele>109.573746</ele>
        <time>2010-01-01T04:21:10Z</time>
      </trkpt>
      <trkpt lat="44.7647" lon="0.74145">
        <ele>110.142593</ele>
        <time>2010-01-01T04:21:28Z</time>
      </trkpt>
      <trkpt lat="44.76507" lon="0.74248">
        <ele>114.388252</ele>
        <time>2010-01-01T04:22:01Z</time>
      </trkpt>
      <trkpt lat="44.76544" lon="0.743">
        <ele>114.028778</ele>
        <time>2010-01-01T04:22:22Z</time>
      </trkpt>
      <trkpt lat="44.76561" lon="0.74366">
        <ele>114.784576</ele>
        <time>2010-01-01T04:22:42Z</time>
      </trkpt>
      <trkpt lat="44.76572" lon="0.74447">
        <ele>115.980064</ele>
        <time>2010-01-01T04:23:06Z</time>
      </trkpt>
      <trkpt lat="44.76571" lon="0.7452">
        <ele>115.465691</ele>
        <time>2010-01-01T04:23:26Z</time>
      </trkpt>
      <trkpt lat="44.76578" lon="0.74576">
        <ele>110.564247</ele>
        <time>2010-01-01T04:23:43Z</time>
      </trkpt>
      <trkpt lat="44.76565" lon="0.7466">
        <ele>116.141998</ele>
        <time>2010-01-01T04:24:07Z</time>
      </trkpt>
      <trkpt lat="44.7655" lon="0.74707">
        <ele>121.133499</ele>
        <time>2010-01-01T04:24:22Z</time>
      </trkpt>
      <trkpt lat="44.76553" lon="0.74725">
        <ele>121.285011</ele>
        <time>2010-01-01T04:24:27Z</time>
      </trkpt>
      <trkpt lat="44.76544" lon="0.74748">
        <ele>121.446274</ele>
        <time>2010-01-01T04:24:34Z</time>
      </trkpt>
      <trkpt lat="44.76634" lon="0.74805">
        <ele>121.367584</ele>
        <time>2010-01-01T04:25:14Z</time>
      </trkpt>
      <trkpt lat="44.7663" lon="0.74794">
        <ele>121.326355</ele>
        <time>2010-01-01T04:25:17Z</time>
      </trkpt>
      <trkpt lat="44.76644" lon="0.74793">
        <ele>121.24054</ele>
        <time>2010-01-01T04:25:23Z</time>
      </trkpt>
      <trkpt lat="44.76652" lon="0.74805">
        <ele>121.487686</ele>
        <time>2010-01-01T04:25:28Z</time>
      </trkpt>
      <trkpt lat="44.7665" lon="0.74822">
        <ele>121.554527</ele>
        <time>2010-01-01T04:25:33Z</time>
      </trkpt>
      <trkpt lat="44.7664" lon="0.74828">
        <ele>120.6745</ele>
        <time>2010-01-01T04:25:37Z</time>
      </trkpt>
      <trkpt lat="44.76629" lon="0.74823">
        <ele>120.979195</ele>
        <time>2010-01-01T04:25:42Z</time>
      </trkpt>
      <trkpt lat="44.76636" lon="0.74831">
        <ele>120.287872</ele>
        <time>2010-01-01T04:25:45Z</time>
      </trkpt>
      <trkpt lat="44.76656" lon="0.74811">
        <ele>121.700233</ele>
        <time>2010-01-01T04:25:55Z</time>
      </trkpt>
      <trkpt lat="44.76667" lon="0.74809">
        <ele>120.429512</ele>
        <time>2010-01-01T04:26:00Z</time>
      </trkpt>
      <trkpt lat="44.76694" lon="0.74838">
        <ele>115.697502</ele>
        <time>2010-01-01T04:26:13Z</time>
      </trkpt>
      <trkpt lat="44.76693" lon="0.74903">
        <ele>112.688965</ele>
        <time>2010-01-01T04:26:32Z</time>
      </trkpt>
      <trkpt lat="44.76742" lon="0.74989">
        <ele>109.015305</ele>
        <time>2010-01-01T04:27:03Z</time>
      </trkpt>
      <trkpt lat="44.76755" lon="0.75052">
        <ele>106.99025</ele>
        <time>2010-01-01T04:27:22Z</time>
      </trkpt>
      <trkpt lat="44.76762" lon="0.75187">
        <ele>101.25312</ele>
        <time>2010-01-01T04:28:00Z</time>
      </trkpt>
      <trkpt lat="44.76775" lon="0.75243">
        <ele>98.082596</ele>
        <time>2010-01-01T04:28:17Z</time>
      </trkpt>
      <trkpt lat="44.76863" lon="0.75389">
        <ele>89.326157</ele>
        <time>2010-01-01T04:29:11Z</time>
      </trkpt>
      <trkpt lat="44.76869" lon="0.75452">
        <ele>92.450401</ele>
        <time>2010-01-01T04:29:29Z</time>
      </trkpt>
      <trkpt lat="44.76894" lon="0.7554">
        <ele>101.106331</ele>
        <time>2010-01-01T04:29:56Z</time>
      </trkpt>
      <trkpt lat="44.76898" lon="0.75713">
        <ele>102.886688</ele>
        <time>2010-01-01T04:30:45Z</time>
      </trkpt>
      <trkpt lat="44.76907" lon="0.75813">
        <ele>94.685547</ele>
        <time>2010-01-01T04:31:14Z</time>
      </trkpt>
      <trkpt lat="44.76928" lon="0.75926">
        <ele>80.143127</ele>
        <time>2010-01-01T04:31:47Z</time>
      </trkpt>
      <trkpt lat="44.7693" lon="0.76253">
        <ele>99.510002</ele>
        <time>2010-01-01T04:33:20Z</time>
      </trkpt>
      <trkpt lat="44.76893" lon="0.76639">
        <ele>129.182693</ele>
        <time>2010-01-01T04:35:11Z</time>
      </trkpt>
      <trkpt lat="44.76896" lon="0.76692">
        <ele>133.013214</ele>
        <time>2010-01-01T04:35:26Z</time>
      </trkpt>
      <trkpt lat="44.7687" lon="0.76693">
        <ele>132.849808</ele>
        <time>2010-01-01T04:35:36Z</time>
      </trkpt>
      <trkpt lat="44.76892" lon="0.76689">
        <ele>132.742279</ele>
        <time>2010-01-01T04:35:45Z</time>
      </trkpt>
      <trkpt lat="44.76977" lon="0.76654">
        <ele>132.863754</ele>
        <time>2010-01-01T04:36:20Z</time>
      </trkpt>
      <trkpt lat="44.76986" lon="0.76655">
        <ele>133.117493</ele>
        <time>2010-01-01T04:36:24Z</time>
      </trkpt>
      <trkpt lat="44.76984" lon="0.7668">
        <ele>133.867493</ele>
        <time>2010-01-01T04:36:31Z</time>
      </trkpt>
      <trkpt lat="44.76892" lon="0.76721">
        <ele>134.096207</ele>
        <time>2010-01-01T04:37:10Z</time>
      </trkpt>
      <trkpt lat="44.76885" lon="0.76731">
        <ele>134.216782</ele>
        <time>2010-01-01T04:37:13Z</time>
      </trkpt>
    </trkseg>
  </trk>
</gpx>